Data for 11/19/2012

Time Sea-Level Adjusted Pressure Absolute Pressure Temperature Relative Humidity Dew Point Precipitation   
(mb) (inHg) (mb) (inHg) (C) (F) (%) (C) (F) (mm) (in)
00:01 1020 30.12 849 25.07 -1.7 29 84 -4.1 24.7 0 0
00:02 1020 30.12 849 25.07 -1.6 29.1 83 -4.2 24.5 0 0
00:03 1020 30.12 849 25.07 -1.5 29.4 82 -4.2 24.5 0 0
00:04 1020 30.12 849 25.07 -1.4 29.5 83 -3.9 25 0 0
00:05 1020 30.12 849 25.07 -1.1 30.1 81 -3.9 24.9 0 0
00:06 1020 30.12 849 25.07 -0.8 30.5 78 -4.2 24.5 0 0
00:07 1020 30.12 849 25.07 -1 30.2 78 -4.3 24.3 0 0
00:08 1020 30.12 849 25.07 -1.2 29.8 80 -4.2 24.4 0 0
00:09 1020 30.12 849 25.07 -1.3 29.7 80 -4.3 24.3 0 0
00:10 1020 30.12 849 25.07 -1.3 29.7 80 -4.3 24.3 0 0
00:11 1020 30.12 849 25.07 -1.3 29.7 80 -4.3 24.2 0 0
00:12 1020 30.12 849 25.07 -1.3 29.7 80 -4.4 24.2 0 0
00:13 1020 30.12 849 25.07 -1.3 29.7 79 -4.5 23.9 0 0
00:14 1020 30.12 849 25.07 -1.4 29.5 79 -4.5 23.9 0 0
00:15 1020 30.12 849 25.07 -1.5 29.4 80 -4.5 24 0 0
00:16 1020 30.12 849 25.07 -1.4 29.5 79 -4.5 23.8 0 0
00:17 1020 30.12 849 25.07 -1.4 29.5 79 -4.5 23.9 0 0
00:18 1020 30.12 849 25.07 -1.4 29.5 79 -4.6 23.8 0 0
00:19 1020 30.12 849 25.07 -1.4 29.4 80 -4.5 23.9 0 0
00:20 1020 30.12 849 25.07 -1.5 29.4 80 -4.6 23.8 0 0
00:21 1020 30.12 849 25.07 -1.6 29.2 80 -4.5 23.8 0 0
00:22 1020 30.12 849 25.07 -1.6 29.1 80 -4.6 23.8 0 0
00:23 1020 30.12 849 25.07 -1.8 28.7 81 -4.7 23.5 0 0
00:24 1020 30.12 849 25.07 -2 28.4 81 -4.8 23.4 0 0
00:25 1020 30.12 849 25.07 -2.1 28.1 82 -4.8 23.3 0 0
00:26 1020 30.12 849 25.07 -2.3 27.9 82 -4.9 23.2 0 0
00:27 1020 30.12 849 25.07 -2.4 27.6 83 -5 23 0 0
00:28 1020 30.12 849 25.07 -2.6 27.3 83 -5.1 22.8 0 0
00:29 1020 30.12 849 25.07 -2.8 27 84 -5.2 22.7 0 0
00:30 1020 30.12 849 25.07 -2.8 26.9 84 -5.1 22.8 0 0
00:31 1020 30.12 849 25.07 -2.9 26.8 83 -5.3 22.5 0 0
00:32 1020 30.12 849 25.07 -3 26.6 85 -5.3 22.5 0 0
00:33 1020 30.12 849 25.07 -2.9 26.7 84 -5.3 22.5 0 0
00:34 1020 30.12 849 25.07 -2.9 26.7 83 -5.4 22.2 0 0
00:35 1020 30.12 849 25.07 -3.1 26.4 83 -5.6 21.9 0 0
00:36 1020 30.12 849 25.07 -3.3 26.1 85 -5.5 22.1 0 0
00:37 1020 30.12 849 25.07 -3.3 26.1 84 -5.7 21.8 0 0
00:38 1020 30.12 849 25.07 -3.4 25.9 86 -5.4 22.3 0 0
00:39 1020 30.12 849 25.07 -3.2 26.3 88 -4.9 23.2 0 0
00:40 1020 30.12 849 25.07 -2.9 26.8 86 -5 23.1 0 0
00:41 1020 30.12 849 25.07 -2.7 27.1 85 -4.9 23.2 0 0
00:42 1020 30.12 849 25.07 -2.6 27.3 84 -4.9 23.1 0 0
00:43 1020 30.12 849 25.07 -2.6 27.3 85 -4.8 23.4 0 0
00:44 1020 30.12 849 25.07 -2.6 27.4 85 -4.7 23.5 0 0
00:45 1020 30.12 849 25.07 -2.5 27.6 85 -4.7 23.6 0 0
00:46 1020 30.12 849 25.07 -2.3 27.8 85 -4.6 23.8 0 0
00:47 1020 30.12 849 25.07 -2.2 28 84 -4.6 23.7 0 0
00:48 1020 30.12 849 25.07 -2.2 28 84 -4.6 23.7 0 0
00:49 1020 30.12 849 25.07 -2.2 28 84 -4.6 23.7 0 0
00:50 1020 30.12 849 25.07 -2.3 27.9 84 -4.6 23.8 0 0
00:51 1020 30.12 849 25.07 -2.1 28.2 84 -4.5 24 0 0
00:52 1020 30.12 849 25.07 -2.1 28.3 83 -4.6 23.8 0 0
00:53 1020 30.12 849 25.07 -2 28.4 82 -4.7 23.6 0 0
00:54 1020 30.12 849 25.07 -2.1 28.3 82 -4.7 23.5 0 0
00:55 1020 30.12 849 25.07 -2.1 28.3 81 -4.8 23.3 0 0
00:56 1020 30.12 849 25.07 -2.1 28.2 80 -5 22.9 0 0
00:57 1020 30.12 849 25.07 -2.3 27.8 81 -5.2 22.6 0 0
00:58 1020 30.12 849 25.07 -2.5 27.5 81 -5.4 22.3 0 0
00:59 1020 30.12 849 25.07 -2.7 27.2 82 -5.3 22.4 0 0
01:00 1020 30.12 849 25.07 -2.7 27.2 83 -5.2 22.7 0 0
01:01 1020 30.12 849 25.07 -2.5 27.5 82 -5.3 22.5 0 0
01:02 1020 30.12 849 25.07 -2.4 27.8 81 -5.2 22.6 0 0
01:03 1020 30.12 849 25.07 -2.4 27.7 80 -5.4 22.3 0 0
01:04 1020 30.12 849 25.07 -2.5 27.5 80 -5.4 22.3 0 0
01:05 1020 30.12 849 25.07 -2.6 27.3 81 -5.4 22.3 0 0
01:06 1020 30.12 849 25.07 -2.7 27.2 82 -5.3 22.4 0 0
01:07 1020 30.12 849 25.07 -2.6 27.3 82 -5.2 22.6 0 0
01:08 1020 30.12 849 25.07 -2.5 27.5 81 -5.3 22.5 0 0
01:09 1020 30.12 849 25.07 -2.5 27.5 81 -5.4 22.3 0 0
01:10 1020 30.12 849 25.07 -2.5 27.5 82 -5.2 22.6 0 0
01:11 1020 30.12 849 25.07 -2.4 27.6 81 -5.2 22.6 0 0
01:12 1020 30.12 849 25.07 -2.3 27.9 81 -5.2 22.7 0 0
01:13 1020 30.12 849 25.07 -2.1 28.2 80 -5.2 22.7 0 0
01:14 1020 30.12 849 25.07 -2.1 28.2 79 -5.2 22.6 0 0
01:15 1020 30.12 849 25.07 -2.1 28.2 79 -5.2 22.6 0 0
01:16 1020 30.12 849 25.07 -2.1 28.2 80 -5.1 22.8 0 0
01:17 1020 30.12 849 25.07 -2 28.4 79 -5.1 22.8 0 0
01:18 1020 30.12 849 25.07 -2 28.3 79 -5.2 22.7 0 0
01:19 1020 30.12 849 25.07 -2.2 28.1 80 -5.1 22.8 0 0
01:20 1020 30.12 849 25.07 -2.1 28.1 81 -5 23 0 0
01:21 1020 30.12 849 25.07 -2.1 28.3 81 -4.9 23.1 0 0
01:22 1020 30.12 849 25.07 -2 28.4 80 -5 23 0 0
01:23 1020 30.12 849 25.07 -2.2 28.1 81 -5 23 0 0
01:24 1020 30.12 849 25.07 -2.3 27.9 81 -5.1 22.9 0 0
01:25 1019 30.09 849 25.07 -2.4 27.7 82 -5.1 22.8 0 0
01:26 1019 30.09 849 25.07 -2.5 27.5 83 -5.1 22.8 0 0
01:27 1019 30.09 849 25.07 -2.6 27.3 83 -5.1 22.8 0 0
01:28 1019 30.09 849 25.07 -2.6 27.2 83 -5.1 22.8 0 0
01:29 1019 30.09 849 25.07 -2.7 27.2 83 -5.1 22.8 0 0
01:30 1019 30.09 849 25.07 -2.7 27.1 84 -5 22.9 0 0
01:31 1019 30.09 849 25.07 -2.7 27.1 85 -4.8 23.3 0 0
01:32 1019 30.09 849 25.07 -2.7 27.2 86 -4.7 23.6 0 0
01:33 1019 30.09 849 25.07 -2.6 27.3 86 -4.6 23.7 0 0
01:34 1019 30.09 849 25.07 -2.5 27.4 86 -4.6 23.7 0 0
01:35 1019 30.09 849 25.07 -2.4 27.7 85 -4.6 23.8 0 0
01:36 1019 30.09 849 25.07 -2.3 27.8 85 -4.5 23.8 0 0
01:37 1019 30.09 849 25.07 -2.3 27.9 84 -4.6 23.8 0 0
01:38 1019 30.09 849 25.07 -2.2 28.1 83 -4.7 23.6 0 0
01:39 1019 30.09 849 25.07 -2.1 28.2 83 -4.6 23.6 0 0
01:40 1019 30.09 849 25.07 -2.1 28.3 83 -4.6 23.7 0 0
01:41 1019 30.09 849 25.07 -2 28.4 82 -4.6 23.6 0 0
01:42 1019 30.09 849 25.07 -1.9 28.5 82 -4.6 23.6 0 0
01:43 1019 30.09 849 25.07 -1.9 28.6 81 -4.7 23.6 0 0
01:44 1019 30.09 849 25.07 -1.9 28.7 81 -4.7 23.6 0 0
01:45 1019 30.09 849 25.07 -1.9 28.6 81 -4.7 23.5 0 0
01:46 1019 30.09 849 25.07 -1.8 28.7 81 -4.7 23.6 0 0
01:47 1019 30.09 849 25.07 -1.8 28.8 81 -4.7 23.6 0 0
01:48 1019 30.09 849 25.07 -1.7 28.9 80 -4.7 23.6 0 0
01:49 1019 30.09 849 25.07 -1.6 29.2 79 -4.7 23.5 0 0
01:50 1019 30.09 849 25.07 -1.4 29.4 78 -4.7 23.5 0 0
01:51 1019 30.09 848 25.04 -1.4 29.6 78 -4.7 23.5 0 0
01:52 1019 30.09 848 25.04 -1.3 29.6 77 -4.9 23.2 0 0
01:53 1019 30.09 848 25.04 -1.3 29.7 77 -4.8 23.4 0 0
01:54 1019 30.09 848 25.04 -1.3 29.7 77 -4.8 23.3 0 0
01:55 1019 30.09 849 25.07 -1.3 29.6 77 -4.9 23.3 0 0
01:56 1019 30.09 849 25.07 -1.3 29.6 77 -4.8 23.3 0 0
01:57 1019 30.09 848 25.04 -1.4 29.5 77 -4.9 23.2 0 0
01:58 1019 30.09 848 25.04 -1.4 29.6 77 -4.8 23.3 0 0
01:59 1019 30.09 848 25.04 -1.3 29.6 77 -4.8 23.3 0 0
02:00 1019 30.09 848 25.04 -1.2 29.8 77 -4.8 23.4 0 0
02:01 1019 30.09 848 25.04 -1.2 29.9 77 -4.7 23.5 0 0
02:02 1019 30.09 848 25.04 -1.1 30 77 -4.7 23.5 0 0
02:03 1019 30.09 848 25.04 -1.1 30 77 -4.7 23.6 0 0
02:04 1019 30.09 848 25.04 -1.1 30 77 -4.6 23.7 0 0
02:05 1019 30.09 848 25.04 -1.1 30 77 -4.6 23.8 0 0
02:06 1019 30.09 849 25.07 -1.1 30.1 77 -4.5 23.8 0 0
02:07 1019 30.09 849 25.07 -1.1 30.1 77 -4.6 23.7 0 0
02:08 1019 30.09 849 25.07 -1.1 30.1 77 -4.6 23.7 0 0
02:09 1019 30.09 849 25.07 -1.1 30.1 77 -4.6 23.7 0 0
02:10 1019 30.09 849 25.07 -1.1 30.1 77 -4.6 23.7 0 0
02:11 1019 30.09 849 25.07 -1.1 30 77 -4.6 23.7 0 0
02:12 1019 30.09 849 25.07 -1.1 30 77 -4.7 23.5 0 0
02:13 1019 30.09 849 25.07 -1 30.1 75 -4.9 23.1 0 0
02:14 1019 30.09 849 25.07 -0.9 30.4 75 -4.8 23.3 0 0
02:15 1019 30.09 849 25.07 -0.9 30.4 75 -4.8 23.3 0 0
02:16 1019 30.09 849 25.07 -0.8 30.5 74 -4.9 23.3 0 0
02:17 1019 30.09 849 25.07 -0.8 30.6 74 -4.9 23.2 0 0
02:18 1019 30.09 849 25.07 -0.8 30.7 73 -5 23.1 0 0
02:19 1019 30.09 849 25.07 -0.7 30.8 73 -5 23.1 0 0
02:20 1019 30.09 849 25.07 -0.6 31 73 -4.9 23.2 0 0
02:21 1019 30.09 849 25.07 -0.6 31 73 -4.9 23.2 0 0
02:22 1019 30.09 849 25.07 -0.6 31 72 -4.9 23.1 0 0
02:23 1019 30.09 849 25.07 -0.5 31.1 72 -4.9 23.2 0 0
02:24 1019 30.09 849 25.07 -0.5 31.2 72 -4.9 23.2 0 0
02:25 1019 30.09 849 25.07 -0.4 31.2 72 -4.8 23.3 0 0
02:26 1019 30.09 849 25.07 -0.4 31.3 73 -4.7 23.5 0 0
02:27 1019 30.09 849 25.07 -0.4 31.2 72 -4.8 23.3 0 0
02:28 1019 30.09 849 25.07 -0.5 31.1 73 -4.7 23.5 0 0
02:29 1019 30.09 849 25.07 -0.6 31 74 -4.6 23.7 0 0
02:30 1019 30.09 849 25.07 -0.6 30.8 74 -4.7 23.6 0 0
02:31 1019 30.09 849 25.07 -0.6 30.9 73 -4.9 23.2 0 0
02:32 1019 30.09 849 25.07 -0.6 31 74 -4.7 23.5 0 0
02:33 1019 30.09 849 25.07 -0.6 30.9 74 -4.7 23.6 0 0
08:39 1021 30.15 850 25.1 0.2 32.3 65 -5.6 21.9 0 0
08:40 1021 30.15 850 25.1 0.2 32.4 65 -5.6 21.8 0 0
08:41 1021 30.15 850 25.1 0.3 32.5 64 -5.7 21.7 0 0
08:42 1021 30.15 850 25.1 0.3 32.5 64 -5.8 21.6 0 0
08:43 1021 30.15 850 25.1 0.2 32.4 64 -5.7 21.7 0 0
08:44 1021 30.15 850 25.1 0.1 32.2 65 -5.8 21.6 0 0
08:45 1021 30.15 850 25.1 0.1 32.2 65 -5.7 21.8 0 0
08:46 1021 30.15 850 25.1 0.2 32.4 66 -5.4 22.3 0 0
08:47 1021 30.15 850 25.1 0.3 32.5 67 -5.2 22.6 0 0
08:48 1021 30.15 850 25.1 0.4 32.8 66 -5.1 22.8 0 0
08:49 1021 30.15 850 25.1 0.5 32.8 64 -5.6 22 0 0
08:50 1021 30.15 850 25.1 0.5 33 63 -5.7 21.7 0 0
08:51 1021 30.15 850 25.1 0.8 33.4 62 -5.7 21.7 0 0
08:52 1021 30.15 850 25.1 0.9 33.6 61 -5.9 21.5 0 0
08:53 1021 30.15 850 25.1 1.1 33.9 59 -6 21.3 0 0
08:54 1021 30.15 850 25.1 1.3 34.4 58 -6.1 21.1 0 0
08:55 1021 30.15 850 25.1 1.7 35 57 -6 21.2 0 0
08:56 1021 30.15 850 25.1 1.9 35.5 57 -5.7 21.7 0 0
08:57 1021 30.15 850 25.1 2 35.7 56 -5.9 21.4 0 0
08:58 1021 30.15 850 25.1 2.3 36.2 55 -5.9 21.4 0 0
08:59 1021 30.15 850 25.1 2.5 36.5 56 -5.5 22.1 0 0
09:00 1021 30.15 850 25.1 2.5 36.5 57 -5.3 22.5 0 0
09:01 1021 30.15 850 25.1 2.5 36.5 56 -5.5 22.2 0 0
09:02 1021 30.15 850 25.1 2.6 36.7 56 -5.2 22.6 0 0
09:03 1021 30.15 850 25.1 2.5 36.5 56 -5.3 22.4 0 0
09:04 1021 30.15 850 25.1 2.4 36.4 57 -5.3 22.5 0 0
09:05 1021 30.15 850 25.1 2.4 36.3 57 -5.2 22.6 0 0
09:06 1021 30.15 850 25.1 2.5 36.5 57 -5.1 22.9 0 0
09:07 1021 30.15 850 25.1 2.6 36.6 57 -5 22.9 0 0
09:08 1021 30.15 850 25.1 2.6 36.6 57 -5.1 22.8 0 0
09:09 1021 30.15 850 25.1 2.6 36.6 57 -5.2 22.7 0 0
09:10 1021 30.15 850 25.1 2.6 36.7 56 -5.3 22.5 0 0
09:11 1021 30.15 850 25.1 2.6 36.8 56 -5.2 22.7 0 0
09:12 1021 30.15 850 25.1 2.7 36.9 56 -5.2 22.6 0 0
09:13 1021 30.15 850 25.1 2.7 36.8 57 -5 23 0 0
09:14 1021 30.15 850 25.1 2.6 36.6 58 -4.8 23.3 0 0
09:15 1021 30.15 850 25.1 2.5 36.5 59 -4.7 23.6 0 0
09:16 1021 30.15 850 25.1 2.5 36.4 60 -4.6 23.7 0 0
09:17 1021 30.15 850 25.1 2.4 36.4 59 -4.8 23.4 0 0
09:18 1021 30.15 850 25.1 2.4 36.3 59 -4.7 23.5 0 0
09:19 1021 30.15 850 25.1 2.4 36.3 61 -4.4 24.1 0 0
09:20 1021 30.15 850 25.1 2.4 36.4 61 -4.4 24.2 0 0
09:21 1021 30.15 850 25.1 2.4 36.3 60 -4.6 23.7 0 0
09:24 1021 30.15 850 25.1 3.1 37.6 55 -5 23.1 0 0
09:25 1021 30.15 850 25.1 3.3 38 57 -4.4 24 0 0
09:26 1021 30.15 850 25.1 3.5 38.3 55 -4.7 23.6 0 0
09:27 1021 30.15 850 25.1 3.7 38.7 55 -4.5 23.8 0 0
09:28 1021 30.15 850 25.1 3.8 38.8 55 -4.3 24.2 0 0
09:29 1021 30.15 850 25.1 3.8 38.8 55 -4.4 24.1 0 0
09:30 1021 30.15 850 25.1 3.8 38.9 56 -4.2 24.5 0 0
09:31 1021 30.15 850 25.1 3.8 38.8 55 -4.5 23.9 0 0
09:32 1021 30.15 850 25.1 3.7 38.7 54 -4.8 23.4 0 0
09:33 1021 30.15 850 25.1 3.7 38.7 54 -4.6 23.7 0 0
09:34 1021 30.15 850 25.1 3.8 38.9 54 -4.6 23.8 0 0
09:35 1021 30.15 850 25.1 4 39.3 53 -4.6 23.7 0 0
09:36 1021 30.15 850 25.1 4.3 39.8 54 -4.2 24.4 0 0
09:37 1021 30.15 850 25.1 4.6 40.2 54 -3.9 25 0 0
09:38 1021 30.15 850 25.1 4.6 40.3 50 -5 23.1 0 0
09:39 1021 30.15 850 25.1 4.7 40.4 50 -4.7 23.5 0 0
09:40 1021 30.15 850 25.1 4.7 40.5 50 -4.8 23.3 0 0
09:41 1021 30.15 850 25.1 4.7 40.5 50 -4.7 23.5 0 0
09:42 1021 30.15 850 25.1 4.8 40.6 51 -4.6 23.7 0 0
09:44 1021 30.15 850 25.1 4.7 40.5 49 -5 23 0 0
09:45 1021 30.15 850 25.1 4.7 40.4 52 -4.4 24 0 0
09:46 1021 30.15 850 25.1 4.7 40.5 52 -4.4 24 0 0
09:47 1021 30.15 850 25.1 4.9 40.8 51 -4.4 24.1 0 0
09:48 1021 30.15 850 25.1 5.1 41.2 50 -4.6 23.8 0 0
09:49 1021 30.15 850 25.1 5.3 41.6 51 -4.1 24.6 0 0
09:50 1021 30.15 850 25.1 5.3 41.6 50 -4.2 24.4 0 0
09:51 1021 30.15 850 25.1 5.4 41.7 50 -4.1 24.6 0 0
09:52 1021 30.15 850 25.1 5.5 42 50 -4.1 24.7 0 0
09:53 1021 30.15 850 25.1 5.8 42.4 48 -4.5 23.9 0 0
09:54 1021 30.15 850 25.1 6.1 42.9 48 -4.2 24.5 0 0
09:55 1021 30.15 850 25.1 6.2 43.2 48 -3.8 25.1 0 0
09:56 1021 30.15 850 25.1 6.4 43.5 49 -3.6 25.5 0 0
09:57 1021 30.15 850 25.1 6.4 43.5 50 -3.3 26.1 0 0
09:58 1021 30.15 850 25.1 6.2 43.2 50 -3.4 25.9 0 0
09:59 1021 30.15 850 25.1 6.2 43.1 51 -3.2 26.2 0 0
10:00 1021 30.15 850 25.1 6.2 43.2 51 -3.3 26.1 0 0
10:01 1021 30.15 850 25.1 6 42.9 51 -3.3 26.1 0 0
10:02 1021 30.15 850 25.1 5.8 42.5 52 -3.3 26.1 0 0
10:03 1021 30.15 850 25.1 5.7 42.3 54 -2.9 26.7 0 0
10:04 1021 30.15 850 25.1 5.7 42.3 54 -2.9 26.8 0 0
10:05 1021 30.15 850 25.1 5.7 42.2 53 -3.1 26.5 0 0
10:06 1021 30.15 850 25.1 5.8 42.4 53 -3 26.5 0 0
10:07 1021 30.15 850 25.1 5.9 42.7 52 -3.2 26.2 0 0
10:08 1021 30.15 850 25.1 6 42.8 52 -3 26.6 0 0
10:09 1021 30.15 850 25.1 6 42.8 51 -3.4 25.8 0 0
10:10 1021 30.15 850 25.1 6.1 42.9 51 -3.2 26.3 0 0
10:11 1021 30.15 850 25.1 6 42.8 53 -3 26.7 0 0
10:12 1021 30.15 850 25.1 5.9 42.7 51 -3.4 25.9 0 0
10:13 1021 30.15 850 25.1 6 42.8 50 -3.6 25.4 0 0
10:14 1021 30.15 850 25.1 6.3 43.3 51 -3.1 26.5 0 0
10:15 1021 30.15 850 25.1 6.6 43.8 50 -3.1 26.4 0 0
10:16 1021 30.15 850 25.1 6.7 44 45 -4.5 23.9 0 0
10:17 1021 30.15 850 25.1 6.8 44.2 48 -3.4 25.9 0 0
10:18 1021 30.15 850 25.1 7.1 44.7 47 -3.4 25.9 0 0
10:19 1021 30.15 850 25.1 7.4 45.4 46 -3.3 26.1 0 0
10:20 1021 30.15 850 25.1 7.8 46.1 46 -3.1 26.4 0 0
10:21 1021 30.15 850 25.1 8.1 46.6 46 -2.8 26.9 0 0
10:22 1021 30.15 850 25.1 8.4 47.1 43 -3.4 25.9 0 0
10:23 1021 30.15 850 25.1 8.4 47.2 45 -2.7 27.2 0 0
10:24 1021 30.15 850 25.1 8.5 47.3 45 -2.8 26.9 0 0
10:25 1021 30.15 850 25.1 8.8 47.8 44 -2.8 27 0 0
10:26 1021 30.15 850 25.1 8.9 48.1 43 -2.8 27 0 0
10:27 1021 30.15 850 25.1 9 48.1 44 -2.7 27.2 0 0
10:28 1021 30.15 850 25.1 8.9 48.1 43 -3 26.6 0 0
10:29 1021 30.15 850 25.1 8.8 47.8 45 -2.3 27.8 0 0
10:30 1021 30.15 850 25.1 8.6 47.5 42 -3.4 25.9 0 0
10:31 1021 30.15 850 25.1 8.5 47.3 42 -3.5 25.7 0 0
10:32 1021 30.15 850 25.1 8.5 47.3 44 -3.1 26.3 0 0
10:33 1021 30.15 850 25.1 8.5 47.3 43 -3.4 25.9 0 0
10:34 1021 30.15 850 25.1 8.5 47.2 44 -3.1 26.4 0 0
10:35 1021 30.15 850 25.1 8.4 47 45 -2.9 26.7 0 0
10:36 1021 30.15 850 25.1 8.2 46.8 46 -2.7 27.1 0 0
10:37 1021 30.15 850 25.1 8.1 46.6 45 -3 26.7 0 0
10:38 1021 30.15 850 25.1 8 46.5 44 -3.4 25.9 0 0
10:39 1021 30.15 850 25.1 7.9 46.1 46 -3 26.7 0 0
10:40 1021 30.15 850 25.1 7.8 46 46 -3.1 26.4 0 0
10:41 1021 30.15 850 25.1 7.6 45.7 47 -3 26.7 0 0
10:42 1021 30.15 850 25.1 7.5 45.6 47 -2.9 26.7 0 0
10:43 1021 30.15 850 25.1 7.6 45.6 47 -3 26.6 0 0
10:44 1021 30.15 850 25.1 7.5 45.6 47 -3 26.6 0 0
10:45 1021 30.15 850 25.1 7.6 45.6 46 -3.2 26.2 0 0
10:46 1021 30.15 850 25.1 7.6 45.7 46 -3.1 26.4 0 0
10:47 1021 30.15 850 25.1 7.7 45.8 47 -3 26.7 0 0
10:48 1021 30.15 850 25.1 7.7 45.9 46 -3.2 26.2 0 0
10:49 1021 30.15 850 25.1 7.7 45.9 47 -3 26.7 0 0
10:50 1021 30.15 850 25.1 7.7 45.9 47 -3 26.6 0 0
10:51 1021 30.15 850 25.1 7.7 45.9 47 -3 26.6 0 0
10:52 1021 30.15 850 25.1 7.7 45.8 49 -2.3 27.8 0 0
10:53 1021 30.15 850 25.1 7.8 46 49 -2.3 27.8 0 0
10:54 1021 30.15 850 25.1 7.9 46.2 48 -2.5 27.5 0 0
10:55 1021 30.15 850 25.1 7.9 46.2 50 -1.9 28.7 0 0
10:56 1021 30.15 850 25.1 7.7 45.9 45 -3.6 25.5 0 0
10:57 1021 30.15 850 25.1 7.7 45.8 43 -4.2 24.4 0 0
10:58 1021 30.15 850 25.1 7.8 46.1 44 -3.6 25.5 0 0
10:59 1021 30.15 850 25.1 7.9 46.3 47 -2.8 27 0 0
11:00 1021 30.15 850 25.1 8 46.4 42 -4.1 24.6 0 0
11:01 1021 30.15 850 25.1 8.2 46.8 43 -3.7 25.3 0 0
11:02 1021 30.15 850 25.1 8.5 47.3 40 -4.2 24.5 0 0
11:03 1021 30.15 850 25.1 8.7 47.7 41 -3.9 25 0 0
11:04 1021 30.15 850 25.1 8.9 48.1 41 -3.6 25.5 0 0
11:05 1021 30.15 850 25.1 9.1 48.4 41 -3.3 26 0 0
11:06 1021 30.15 850 25.1 9.1 48.3 41 -3.5 25.8 0 0
11:07 1021 30.15 850 25.1 8.8 47.8 43 -3.2 26.2 0 0
11:08 1021 30.15 850 25.1 8.5 47.4 43 -3.2 26.2 0 0
11:09 1021 30.15 850 25.1 8.3 47 42 -3.9 25 0 0
11:10 1021 30.15 850 25.1 8.3 46.9 41 -4.1 24.6 0 0
11:11 1021 30.15 850 25.1 8.4 47.1 41 -4 24.8 0 0
11:12 1021 30.15 850 25.1 8.5 47.2 41 -4.2 24.5 0 0
11:13 1021 30.15 850 25.1 8.6 47.5 41 -3.8 25.1 0 0
11:14 1021 30.15 850 25.1 8.8 47.9 39 -4.3 24.3 0 0
11:15 1021 30.15 850 25.1 8.9 48.1 39 -4.3 24.2 0 0
11:16 1021 30.15 850 25.1 9.1 48.3 38 -4.4 24.1 0 0
11:17 1021 30.15 850 25.1 9.2 48.5 38 -4.3 24.2 0 0
11:18 1021 30.15 850 25.1 9.1 48.5 39 -4 24.7 0 0
11:19 1021 30.15 850 25.1 9.1 48.4 41 -3.6 25.6 0 0
11:20 1021 30.15 850 25.1 9 48.3 40 -3.7 25.3 0 0
11:21 1021 30.15 850 25.1 9 48.3 43 -2.9 26.8 0 0
11:22 1021 30.15 850 25.1 9 48.2 44 -2.5 27.5 0 0
11:23 1021 30.15 850 25.1 8.9 48.1 43 -3.1 26.5 0 0
11:24 1021 30.15 850 25.1 8.8 47.9 42 -3.3 26.1 0 0
11:25 1021 30.15 850 25.1 8.8 47.8 42 -3.4 25.9 0 0
11:26 1021 30.15 850 25.1 8.7 47.6 43 -3.3 26.1 0 0
11:27 1021 30.15 850 25.1 8.6 47.4 42 -3.6 25.5 0 0
11:28 1021 30.15 850 25.1 8.5 47.3 42 -3.6 25.5 0 0
11:29 1021 30.15 850 25.1 8.6 47.4 41 -3.8 25.2 0 0
11:30 1021 30.15 850 25.1 8.6 47.5 40 -4.1 24.6 0 0
11:31 1021 30.15 850 25.1 8.6 47.4 41 -4 24.8 0 0
11:32 1021 30.15 850 25.1 8.6 47.5 42 -3.7 25.4 0 0
11:33 1021 30.15 850 25.1 8.7 47.7 41 -3.7 25.3 0 0
11:34 1021 30.15 850 25.1 8.7 47.7 44 -2.7 27.2 0 0
11:35 1021 30.15 850 25.1 8.9 48 42 -3.4 25.9 0 0
11:36 1021 30.15 850 25.1 9.1 48.3 41 -3.6 25.6 0 0
11:37 1020 30.12 850 25.1 9 48.2 41 -3.5 25.7 0 0
11:38 1020 30.12 850 25.1 8.9 48 43 -2.9 26.7 0 0
11:39 1020 30.12 850 25.1 9 48.2 42 -3.1 26.4 0 0
11:40 1020 30.12 850 25.1 9.2 48.5 43 -2.8 27 0 0
11:41 1020 30.12 850 25.1 9.4 48.9 41 -3.3 26 0 0
11:42 1020 30.12 850 25.1 9.4 48.9 41 -3.2 26.2 0 0
11:43 1020 30.12 850 25.1 9.4 48.9 43 -2.6 27.3 0 0
11:44 1020 30.12 850 25.1 9.2 48.6 42 -2.9 26.7 0 0
11:45 1020 30.12 850 25.1 9 48.1 44 -2.7 27.2 0 0
11:46 1020 30.12 850 25.1 8.9 47.9 45 -2.4 27.8 0 0
11:47 1020 30.12 850 25.1 8.8 47.8 44 -2.8 26.9 0 0
11:48 1020 30.12 850 25.1 8.8 47.8 43 -3 26.6 0 0
11:49 1020 30.12 850 25.1 8.9 48 45 -2.5 27.5 0 0
11:50 1020 30.12 850 25.1 9 48.1 46 -2 28.4 0 0
11:51 1020 30.12 849 25.07 9 48.2 44 -2.5 27.6 0 0
11:52 1020 30.12 849 25.07 9.1 48.4 44 -2.4 27.7 0 0
11:53 1020 30.12 849 25.07 9.1 48.3 43 -2.9 26.8 0 0
11:54 1020 30.12 849 25.07 9.1 48.4 45 -2.1 28.3 0 0
11:55 1020 30.12 849 25.07 9 48.2 46 -1.9 28.5 0 0
11:56 1020 30.12 849 25.07 9 48.2 47 -1.6 29.2 0 0
11:57 1020 30.12 849 25.07 9 48.2 45 -2.3 27.8 0 0
11:58 1020 30.12 849 25.07 9.1 48.3 45 -2.2 28 0 0
11:59 1020 30.12 849 25.07 9.1 48.4 47 -1.7 28.9 0 0
12:00 1020 30.12 849 25.07 9 48.2 46 -2 28.3 0 0
12:01 1020 30.12 849 25.07 9 48.1 45 -2.5 27.6 0 0
12:02 1020 30.12 849 25.07 8.9 48 45 -2.2 28 0 0
12:03 1020 30.12 849 25.07 8.8 47.9 46 -2 28.4 0 0
12:04 1020 30.12 849 25.07 8.8 47.8 48 -1.7 28.9 0 0
12:05 1020 30.12 849 25.07 8.7 47.6 47 -1.9 28.6 0 0
12:06 1020 30.12 849 25.07 8.6 47.5 47 -2 28.3 0 0
12:07 1020 30.12 849 25.07 8.6 47.5 46 -2.3 27.8 0 0
12:08 1020 30.12 849 25.07 8.6 47.5 45 -2.5 27.5 0 0
12:09 1020 30.12 849 25.07 8.6 47.5 47 -2.2 28.1 0 0
12:10 1020 30.12 849 25.07 8.5 47.3 47 -2.2 28 0 0
12:11 1020 30.12 849 25.07 8.3 47 48 -2 28.4 0 0
12:12 1020 30.12 849 25.07 8.2 46.8 49 -1.8 28.8 0 0
12:13 1020 30.12 849 25.07 8.2 46.7 49 -1.9 28.5 0 0
12:14 1020 30.12 849 25.07 8.1 46.6 50 -1.6 29.1 0 0
12:15 1020 30.12 849 25.07 8.1 46.6 49 -1.8 28.7 0 0
12:16 1020 30.12 849 25.07 8.1 46.6 49 -1.8 28.7 0 0
12:17 1020 30.12 849 25.07 8.2 46.7 50 -1.7 29 0 0
12:18 1020 30.12 849 25.07 8.2 46.8 50 -1.5 29.3 0 0
12:19 1020 30.12 849 25.07 8.4 47 50 -1.4 29.4 0 0
12:20 1020 30.12 849 25.07 8.5 47.3 50 -1.3 29.7 0 0
12:21 1020 30.12 849 25.07 8.6 47.5 47 -1.9 28.5 0 0
12:22 1020 30.12 849 25.07 8.7 47.6 48 -1.6 29.2 0 0
12:23 1020 30.12 849 25.07 8.6 47.5 48 -1.7 29 0 0
12:24 1020 30.12 849 25.07 8.6 47.5 47 -2.1 28.2 0 0
12:25 1020 30.12 849 25.07 8.6 47.4 48 -1.7 28.9 0 0
12:26 1020 30.12 849 25.07 8.6 47.4 49 -1.5 29.2 0 0
12:27 1020 30.12 849 25.07 8.5 47.2 47 -2.3 27.9 0 0
12:28 1020 30.12 849 25.07 8.5 47.3 49 -1.5 29.2 0 0
12:29 1020 30.12 849 25.07 8.4 47.1 49 -1.8 28.8 0 0
12:30 1020 30.12 849 25.07 8.4 47.1 47 -2.2 28 0 0
12:31 1020 30.12 849 25.07 8.5 47.3 47 -2.1 28.2 0 0
12:32 1020 30.12 849 25.07 8.5 47.3 49 -1.7 28.9 0 0
12:33 1020 30.12 849 25.07 8.4 47.2 49 -1.6 29.1 0 0
12:34 1020 30.12 849 25.07 8.4 47.1 46 -2.6 27.3 0 0
12:35 1020 30.12 849 25.07 8.5 47.2 48 -1.8 28.7 0 0
12:36 1020 30.12 849 25.07 8.5 47.3 49 -1.7 29 0 0
12:37 1020 30.12 849 25.07 8.5 47.3 49 -1.5 29.2 0 0
12:38 1020 30.12 849 25.07 8.4 47.2 50 -1.4 29.5 0 0
12:39 1020 30.12 849 25.07 8.4 47.2 48 -1.8 28.7 0 0
12:40 1020 30.12 849 25.07 8.4 47.2 48 -2 28.3 0 0
12:41 1020 30.12 849 25.07 8.4 47.1 47 -2.2 28 0 0
12:42 1020 30.12 849 25.07 8.4 47.2 46 -2.5 27.4 0 0
12:43 1019 30.09 849 25.07 8.5 47.4 46 -2.5 27.4 0 0
12:44 1019 30.09 849 25.07 8.6 47.5 45 -2.6 27.4 0 0
12:45 1020 30.12 849 25.07 8.7 47.6 46 -2.2 28.1 0 0
12:46 1020 30.12 849 25.07 8.7 47.6 46 -2.4 27.8 0 0
12:47 1020 30.12 849 25.07 8.7 47.7 45 -2.6 27.3 0 0
12:48 1020 30.12 849 25.07 8.8 47.8 47 -2 28.4 0 0
12:49 1020 30.12 849 25.07 8.8 47.8 47 -1.9 28.6 0 0
12:50 1020 30.12 849 25.07 8.8 47.8 48 -1.7 28.9 0 0
12:51 1020 30.12 849 25.07 8.8 47.8 46 -2.1 28.2 0 0
12:52 1020 30.12 849 25.07 8.7 47.7 45 -2.5 27.5 0 0
12:53 1020 30.12 849 25.07 8.7 47.7 44 -2.9 26.7 0 0
12:54 1020 30.12 849 25.07 8.8 47.9 45 -2.5 27.5 0 0
12:55 1020 30.12 849 25.07 8.8 47.9 45 -2.5 27.5 0 0
12:56 1020 30.12 849 25.07 8.8 47.9 45 -2.3 27.9 0 0
12:57 1020 30.12 849 25.07 8.9 48 45 -2.4 27.7 0 0
12:58 1020 30.12 849 25.07 8.9 48 45 -2.4 27.6 0 0
12:59 1020 30.12 849 25.07 8.9 48 47 -1.7 28.9 0 0
13:00 1020 30.12 849 25.07 8.9 47.9 49 -1.3 29.7 0 0
13:01 1020 30.12 849 25.07 8.8 47.9 50 -1 30.2 0 0
13:02 1020 30.12 849 25.07 8.8 47.8 50 -0.9 30.3 0 0
13:03 1020 30.12 849 25.07 8.7 47.6 50 -1.1 30 0 0
13:04 1020 30.12 849 25.07 8.6 47.6 51 -1 30.1 0 0
13:05 1020 30.12 849 25.07 8.6 47.4 50 -1.2 29.8 0 0
13:06 1020 30.12 849 25.07 8.6 47.4 48 -1.7 29 0 0
13:07 1020 30.12 849 25.07 8.5 47.4 48 -1.8 28.8 0 0
13:08 1020 30.12 849 25.07 8.6 47.4 48 -1.8 28.7 0 0
13:09 1020 30.12 849 25.07 8.6 47.5 46 -2.3 27.9 0 0
13:10 1020 30.12 849 25.07 8.6 47.6 47 -2.1 28.2 0 0
13:11 1019 30.09 849 25.07 8.7 47.6 47 -2.1 28.2 0 0
13:12 1019 30.09 849 25.07 8.7 47.7 47 -1.8 28.7 0 0
13:13 1020 30.12 849 25.07 8.7 47.7 48 -1.6 29.2 0 0
13:14 1020 30.12 849 25.07 8.7 47.7 48 -1.6 29.2 0 0
13:15 1019 30.09 849 25.07 8.7 47.6 46 -2.1 28.2 0 0
13:16 1019 30.09 849 25.07 8.8 47.8 45 -2.4 27.6 0 0
13:17 1019 30.09 849 25.07 8.8 47.8 45 -2.4 27.6 0 0
13:18 1019 30.09 849 25.07 8.8 47.9 45 -2.3 27.8 0 0
13:19 1020 30.12 849 25.07 8.8 47.9 46 -2.1 28.2 0 0
13:20 1019 30.09 849 25.07 8.8 47.9 47 -1.8 28.8 0 0
13:21 1020 30.12 849 25.07 8.8 47.8 49 -1.4 29.4 0 0
13:22 1019 30.09 849 25.07 8.6 47.5 50 -1.1 30 0 0
13:23 1019 30.09 849 25.07 8.5 47.4 49 -1.5 29.3 0 0
13:24 1019 30.09 849 25.07 8.5 47.3 50 -1.4 29.5 0 0
13:25 1019 30.09 849 25.07 8.6 47.4 50 -1.3 29.7 0 0
13:26 1019 30.09 849 25.07 8.5 47.4 51 -1 30.2 0 0
13:27 1019 30.09 849 25.07 8.5 47.3 50 -1.2 29.9 0 0
13:28 1019 30.09 849 25.07 8.6 47.4 50 -1.3 29.7 0 0
13:29 1019 30.09 849 25.07 8.5 47.4 50 -1.3 29.7 0 0
13:30 1019 30.09 849 25.07 8.5 47.2 50 -1.2 29.8 0 0
13:31 1019 30.09 849 25.07 8.5 47.3 49 -1.5 29.3 0 0
13:32 1019 30.09 849 25.07 8.6 47.4 50 -1.3 29.7 0 0
13:33 1019 30.09 849 25.07 8.6 47.5 48 -1.6 29.1 0 0
13:34 1019 30.09 849 25.07 8.7 47.7 48 -1.6 29.2 0 0
13:35 1019 30.09 849 25.07 8.8 47.8 48 -1.7 29 0 0
13:36 1019 30.09 849 25.07 8.8 47.9 47 -1.9 28.7 0 0
13:37 1019 30.09 849 25.07 8.9 48 46 -1.9 28.5 0 0
13:38 1019 30.09 849 25.07 9 48.2 46 -2 28.4 0 0
13:39 1019 30.09 849 25.07 9.1 48.3 46 -2 28.4 0 0
13:40 1019 30.09 849 25.07 9.2 48.5 45 -2.1 28.2 0 0
13:41 1019 30.09 849 25.07 9.2 48.5 43 -2.6 27.4 0 0
13:42 1019 30.09 849 25.07 9.3 48.7 44 -2.2 28 0 0
13:43 1019 30.09 849 25.07 9.4 48.8 46 -1.7 28.9 0 0
13:44 1019 30.09 849 25.07 9.3 48.8 47 -1.4 29.6 0 0
13:45 1019 30.09 849 25.07 9.2 48.6 48 -1.1 30.1 0 0
13:46 1019 30.09 849 25.07 9.2 48.5 48 -1.3 29.6 0 0
13:47 1019 30.09 849 25.07 9.1 48.4 47 -1.5 29.4 0 0
13:48 1019 30.09 849 25.07 9 48.3 47 -1.5 29.3 0 0
13:49 1019 30.09 849 25.07 9 48.3 42 -3.1 26.4 0 0
13:50 1019 30.09 849 25.07 9.1 48.4 43 -2.8 27 0 0
13:51 1019 30.09 849 25.07 9.2 48.5 44 -2.4 27.7 0 0
13:52 1020 30.12 849 25.07 9.2 48.5 45 -2 28.4 0 0
13:53 1020 30.12 849 25.07 9.2 48.5 45 -2.2 28.1 0 0
13:54 1020 30.12 849 25.07 9.1 48.3 45 -2.2 28.1 0 0
13:55 1020 30.12 849 25.07 9 48.2 46 -2 28.4 0 0
13:56 1020 30.12 849 25.07 9 48.3 46 -1.9 28.7 0 0
13:57 1020 30.12 849 25.07 9 48.3 45 -2.3 27.9 0 0
13:58 1019 30.09 849 25.07 9.1 48.4 44 -2.5 27.5 0 0
13:59 1020 30.12 849 25.07 9.3 48.7 45 -1.9 28.5 0 0
14:00 1020 30.12 849 25.07 9.3 48.7 47 -1.5 29.2 0 0
14:01 1020 30.12 849 25.07 9.2 48.5 47 -1.5 29.4 0 0
14:02 1020 30.12 849 25.07 9.1 48.4 46 -1.7 28.9 0 0
14:03 1020 30.12 849 25.07 9.1 48.3 48 -1.5 29.4 0 0
14:04 1020 30.12 849 25.07 9 48.1 48 -1.4 29.5 0 0
14:05 1020 30.12 849 25.07 8.9 47.9 49 -1.2 29.8 0 0
14:06 1020 30.12 849 25.07 8.7 47.7 50 -1.1 30.1 0 0
14:07 1019 30.09 849 25.07 8.6 47.5 51 -1 30.2 0 0
14:08 1019 30.09 849 25.07 8.6 47.4 51 -1 30.1 0 0
14:09 1019 30.09 849 25.07 8.5 47.3 49 -1.6 29.2 0 0
14:10 1019 30.09 849 25.07 8.6 47.4 47 -2 28.3 0 0
14:11 1019 30.09 849 25.07 8.7 47.6 49 -1.5 29.3 0 0
14:12 1019 30.09 849 25.07 8.7 47.7 48 -1.6 29 0 0
14:13 1019 30.09 849 25.07 8.8 47.8 48 -1.7 28.9 0 0
14:14 1019 30.09 849 25.07 8.8 47.8 47 -1.8 28.7 0 0
14:15 1019 30.09 849 25.07 8.8 47.8 48 -1.7 29 0 0
14:16 1019 30.09 849 25.07 8.8 47.9 47 -1.7 28.9 0 0
14:17 1019 30.09 849 25.07 8.8 47.9 48 -1.6 29.1 0 0
14:18 1019 30.09 849 25.07 8.8 47.8 49 -1.4 29.6 0 0
14:19 1019 30.09 849 25.07 8.7 47.7 49 -1.3 29.7 0 0
14:20 1019 30.09 849 25.07 8.7 47.6 50 -1.3 29.7 0 0
14:21 1019 30.09 849 25.07 8.6 47.5 50 -1.1 30 0 0
14:22 1019 30.09 849 25.07 8.6 47.4 49 -1.4 29.4 0 0
14:23 1019 30.09 849 25.07 8.6 47.5 51 -0.9 30.3 0 0
14:24 1019 30.09 849 25.07 8.5 47.3 51 -1 30.2 0 0
14:25 1019 30.09 849 25.07 8.5 47.3 51 -1.1 29.9 0 0
14:26 1019 30.09 849 25.07 8.5 47.4 48 -1.8 28.7 0 0
14:27 1019 30.09 849 25.07 8.6 47.5 47 -1.9 28.5 0 0
14:28 1019 30.09 849 25.07 8.7 47.6 48 -1.8 28.8 0 0
14:29 1019 30.09 849 25.07 8.6 47.6 49 -1.5 29.4 0 0
14:30 1019 30.09 849 25.07 8.5 47.4 48 -1.8 28.7 0 0
14:31 1019 30.09 849 25.07 8.6 47.4 49 -1.6 29.2 0 0
14:32 1019 30.09 849 25.07 8.6 47.5 47 -2 28.4 0 0
14:33 1019 30.09 849 25.07 8.7 47.7 47 -2 28.5 0 0
14:34 1019 30.09 849 25.07 8.7 47.7 47 -1.9 28.6 0 0
14:35 1019 30.09 849 25.07 8.8 47.8 48 -1.7 28.9 0 0
14:36 1019 30.09 849 25.07 8.7 47.6 49 -1.5 29.3 0 0
14:37 1019 30.09 849 25.07 8.6 47.5 50 -1.1 30 0 0
14:38 1019 30.09 849 25.07 8.5 47.4 51 -1.1 30 0 0
14:39 1019 30.09 849 25.07 8.5 47.2 50 -1.4 29.4 0 0
14:40 1019 30.09 849 25.07 8.5 47.3 50 -1.3 29.6 0 0
14:41 1019 30.09 849 25.07 8.6 47.4 50 -1.1 29.9 0 0
14:42 1019 30.09 849 25.07 8.6 47.5 48 -1.7 28.9 0 0
14:43 1020 30.12 849 25.07 8.7 47.6 46 -2.2 28 0 0
14:44 1020 30.12 849 25.07 8.7 47.7 45 -2.5 27.6 0 0
14:45 1020 30.12 849 25.07 8.9 48 44 -2.7 27.2 0 0
14:46 1020 30.12 849 25.07 9 48.1 43 -2.9 26.7 0 0
14:47 1020 30.12 849 25.07 9 48.2 44 -2.5 27.4 0 0
14:48 1020 30.12 849 25.07 9.1 48.3 44 -2.5 27.4 0 0
14:49 1020 30.12 849 25.07 9.1 48.3 45 -2.2 28 0 0
14:50 1020 30.12 849 25.07 9.1 48.3 44 -2.5 27.4 0 0
14:51 1020 30.12 849 25.07 9.1 48.4 44 -2.4 27.6 0 0
14:52 1020 30.12 849 25.07 9.2 48.5 45 -2 28.4 0 0
14:53 1020 30.12 849 25.07 9.3 48.8 45 -1.9 28.6 0 0
14:54 1020 30.12 849 25.07 9.6 49.3 45 -1.8 28.8 0 0
14:55 1020 30.12 849 25.07 9.9 49.9 43 -1.9 28.5 0 0
14:56 1020 30.12 849 25.07 10 50.1 43 -2 28.4 0 0
14:57 1020 30.12 849 25.07 9.9 49.8 44 -1.8 28.7 0 0
14:58 1020 30.12 849 25.07 9.8 49.6 43 -2.3 27.9 0 0
14:59 1020 30.12 849 25.07 9.7 49.4 45 -1.6 29.1 0 0
15:00 1020 30.12 849 25.07 9.5 49.2 44 -2 28.3 0 0
15:01 1020 30.12 849 25.07 9.4 49 46 -1.5 29.3 0 0
15:02 1020 30.12 849 25.07 9.3 48.8 45 -2.1 28.2 0 0
15:03 1020 30.12 849 25.07 9.3 48.7 45 -1.9 28.6 0 0
15:04 1020 30.12 849 25.07 9.3 48.7 45 -2 28.4 0 0
15:05 1020 30.12 849 25.07 9.4 49 45 -1.8 28.8 0 0
15:06 1020 30.12 849 25.07 9.5 49.1 44 -2 28.4 0 0
15:07 1020 30.12 849 25.07 9.4 49 44 -2.1 28.2 0 0
15:08 1020 30.12 849 25.07 9.3 48.8 46 -1.7 28.9 0 0
15:09 1020 30.12 849 25.07 9.1 48.3 46 -2 28.5 0 0
15:10 1020 30.12 849 25.07 8.8 47.9 47 -1.8 28.8 0 0
15:11 1020 30.12 849 25.07 8.6 47.5 47 -2 28.4 0 0
15:12 1020 30.12 849 25.07 8.4 47.1 49 -1.8 28.8 0 0
15:13 1020 30.12 849 25.07 8.1 46.6 50 -1.5 29.2 0 0
15:14 1020 30.12 849 25.07 8 46.4 51 -1.6 29.2 0 0
15:15 1020 30.12 849 25.07 7.9 46.1 51 -1.7 28.9 0 0
15:16 1019 30.09 849 25.07 7.9 46.1 50 -1.8 28.8 0 0
15:17 1019 30.09 849 25.07 7.9 46.2 50 -2 28.4 0 0
15:18 1019 30.09 849 25.07 7.9 46.3 49 -2 28.4 0 0
15:19 1019 30.09 849 25.07 7.9 46.2 50 -2 28.5 0 0
15:20 1019 30.09 849 25.07 7.9 46.2 49 -2.1 28.2 0 0
15:21 1019 30.09 849 25.07 7.8 46 50 -2 28.5 0 0
15:22 1019 30.09 849 25.07 7.8 46 50 -2.1 28.3 0 0
15:23 1019 30.09 849 25.07 7.8 46 48 -2.5 27.4 0 0
15:24 1020 30.12 849 25.07 8 46.3 50 -1.9 28.6 0 0
15:25 1020 30.12 849 25.07 8 46.5 49 -1.9 28.5 0 0
15:26 1020 30.12 849 25.07 8 46.4 49 -2 28.4 0 0
15:27 1019 30.09 849 25.07 8 46.4 48 -2.3 27.9 0 0
15:28 1019 30.09 849 25.07 8.1 46.6 46 -2.7 27.2 0 0
15:29 1019 30.09 849 25.07 8.3 46.9 47 -2.3 27.9 0 0
15:30 1020 30.12 849 25.07 8.4 47.1 48 -2.1 28.2 0 0
15:31 1020 30.12 849 25.07 8.3 46.9 49 -1.7 29 0 0
15:32 1020 30.12 849 25.07 8.1 46.6 50 -1.7 29 0 0
15:33 1020 30.12 849 25.07 8 46.3 49 -2 28.4 0 0
15:34 1020 30.12 849 25.07 7.9 46.2 51 -1.6 29.2 0 0
15:35 1020 30.12 849 25.07 7.7 45.9 51 -1.6 29.1 0 0
15:36 1020 30.12 849 25.07 7.6 45.7 52 -1.5 29.2 0 0
15:37 1020 30.12 849 25.07 7.6 45.6 51 -1.8 28.7 0 0
15:38 1019 30.09 849 25.07 7.6 45.7 50 -2 28.3 0 0
15:39 1019 30.09 849 25.07 7.6 45.7 50 -2 28.4 0 0
15:40 1019 30.09 849 25.07 7.6 45.7 50 -2.1 28.2 0 0
15:41 1019 30.09 849 25.07 7.6 45.7 50 -2.3 27.9 0 0
15:42 1019 30.09 849 25.07 7.6 45.7 48 -2.6 27.3 0 0
15:43 1019 30.09 849 25.07 7.7 45.9 49 -2.3 27.9 0 0
15:44 1019 30.09 849 25.07 7.7 45.9 50 -2.1 28.2 0 0
15:45 1019 30.09 849 25.07 7.7 45.9 49 -2.3 27.8 0 0
15:46 1020 30.12 849 25.07 7.7 45.8 49 -2.4 27.7 0 0
15:47 1019 30.09 849 25.07 7.7 45.9 49 -2.3 27.9 0 0
15:48 1020 30.12 849 25.07 7.7 45.9 49 -2.4 27.7 0 0
15:49 1020 30.12 849 25.07 7.7 45.9 49 -2.2 28 0 0
15:50 1020 30.12 849 25.07 7.7 45.9 48 -2.5 27.5 0 0
15:51 1020 30.12 849 25.07 7.7 45.9 50 -2.1 28.2 0 0
15:52 1020 30.12 849 25.07 7.7 45.9 50 -2.1 28.1 0 0
15:53 1020 30.12 849 25.07 7.6 45.7 50 -2.2 28 0 0
15:54 1020 30.12 849 25.07 7.6 45.6 50 -2.3 27.9 0 0
15:55 1020 30.12 849 25.07 7.6 45.7 48 -2.6 27.3 0 0
15:56 1020 30.12 849 25.07 7.7 45.9 48 -2.6 27.2 0 0
15:57 1020 30.12 849 25.07 7.8 46 49 -2.2 28 0 0
15:58 1020 30.12 849 25.07 7.7 45.8 49 -2.4 27.6 0 0
15:59 1020 30.12 849 25.07 7.6 45.7 49 -2.5 27.5 0 0
16:00 1020 30.12 849 25.07 7.6 45.6 49 -2.4 27.7 0 0
16:01 1020 30.12 849 25.07 7.5 45.4 51 -2.1 28.2 0 0
16:02 1020 30.12 849 25.07 7.4 45.2 51 -2 28.5 0 0
16:03 1020 30.12 849 25.07 7.2 44.9 53 -1.9 28.6 0 0
16:04 1020 30.12 849 25.07 7.1 44.7 53 -2 28.4 0 0
16:05 1020 30.12 849 25.07 6.9 44.5 53 -2 28.4 0 0
16:06 1020 30.12 849 25.07 6.9 44.4 52 -2.2 28.1 0 0
16:07 1020 30.12 849 25.07 6.9 44.5 50 -2.7 27.2 0 0
16:08 1020 30.12 849 25.07 7.1 44.7 50 -2.6 27.3 0 0
16:09 1020 30.12 849 25.07 7.2 45 50 -2.5 27.5 0 0
16:10 1020 30.12 849 25.07 7.4 45.2 50 -2.4 27.7 0 0
16:11 1020 30.12 849 25.07 7.3 45.1 50 -2.3 27.8 0 0
16:12 1020 30.12 849 25.07 7.2 45 51 -2.2 28.1 0 0
16:13 1020 30.12 849 25.07 7.2 44.9 50 -2.6 27.3 0 0
16:14 1020 30.12 849 25.07 7.2 44.9 50 -2.5 27.5 0 0
16:15 1020 30.12 849 25.07 7.2 44.9 50 -2.4 27.6 0 0
16:16 1020 30.12 849 25.07 7 44.7 51 -2.3 27.9 0 0
16:17 1019 30.09 849 25.07 6.9 44.4 52 -2.3 27.8 0 0
16:18 1019 30.09 849 25.07 6.8 44.3 53 -2.1 28.2 0 0
16:19 1019 30.09 849 25.07 6.7 44 53 -2.2 28.1 0 0
16:20 1020 30.12 849 25.07 6.5 43.8 53 -2.3 27.8 0 0
16:21 1020 30.12 849 25.07 6.6 43.8 52 -2.5 27.5 0 0
16:22 1019 30.09 849 25.07 6.6 43.9 52 -2.6 27.4 0 0
16:23 1019 30.09 849 25.07 6.7 44 52 -2.5 27.5 0 0
16:24 1020 30.12 849 25.07 6.7 44 52 -2.6 27.3 0 0
16:25 1020 30.12 849 25.07 6.7 44 52 -2.6 27.4 0 0
16:26 1020 30.12 849 25.07 6.6 43.9 52 -2.4 27.6 0 0
16:27 1020 30.12 849 25.07 6.6 43.8 51 -2.7 27.1 0 0
16:28 1020 30.12 849 25.07 6.6 44 53 -2.3 27.8 0 0
16:29 1020 30.12 849 25.07 6.5 43.7 53 -2.4 27.8 0 0
16:30 1020 30.12 849 25.07 6.3 43.3 54 -2.4 27.6 0 0
16:31 1020 30.12 849 25.07 6.3 43.3 52 -2.8 26.9 0 0
16:32 1020 30.12 849 25.07 6.4 43.5 51 -3 26.5 0 0
16:33 1020 30.12 849 25.07 6.5 43.7 52 -2.6 27.4 0 0
16:34 1020 30.12 849 25.07 6.5 43.6 53 -2.4 27.7 0 0
16:35 1020 30.12 849 25.07 6.2 43.2 54 -2.5 27.6 0 0
16:36 1020 30.12 849 25.07 6.2 43.1 53 -2.8 27 0 0
16:37 1020 30.12 849 25.07 6.2 43.2 52 -2.9 26.8 0 0
16:38 1020 30.12 849 25.07 6.4 43.6 52 -2.7 27.1 0 0
16:39 1020 30.12 849 25.07 6.5 43.8 52 -2.5 27.4 0 0
16:40 1020 30.12 849 25.07 6.5 43.7 52 -2.6 27.4 0 0
16:41 1020 30.12 849 25.07 6.4 43.6 53 -2.5 27.6 0 0
16:42 1020 30.12 849 25.07 6.4 43.4 53 -2.6 27.3 0 0
16:43 1020 30.12 849 25.07 6.4 43.5 52 -2.6 27.2 0 0
16:44 1020 30.12 849 25.07 6.5 43.7 52 -2.6 27.2 0 0
16:45 1020 30.12 849 25.07 6.4 43.6 53 -2.5 27.5 0 0
16:46 1020 30.12 849 25.07 6.4 43.5 53 -2.6 27.4 0 0
16:47 1020 30.12 849 25.07 6.4 43.6 52 -2.7 27.2 0 0
16:48 1020 30.12 849 25.07 6.5 43.7 52 -2.6 27.4 0 0
16:49 1020 30.12 849 25.07 6.5 43.7 53 -2.4 27.7 0 0
16:50 1020 30.12 849 25.07 6.4 43.5 53 -2.4 27.7 0 0
16:51 1020 30.12 849 25.07 6.3 43.3 54 -2.5 27.6 0 0
16:52 1020 30.12 849 25.07 6.2 43.2 52 -2.8 27 0 0
16:53 1020 30.12 849 25.07 6.3 43.4 53 -2.4 27.7 0 0
16:54 1020 30.12 849 25.07 6.3 43.3 55 -2.2 28.1 0 0
16:55 1020 30.12 849 25.07 6 42.8 55 -2.3 27.9 0 0
16:56 1020 30.12 849 25.07 5.9 42.5 56 -2.4 27.8 0 0
16:57 1020 30.12 849 25.07 5.7 42.3 55 -2.5 27.5 0 0
16:58 1020 30.12 849 25.07 5.8 42.4 54 -2.7 27.1 0 0
16:59 1020 30.12 849 25.07 5.8 42.5 53 -2.9 26.8 0 0
17:00 1020 30.12 849 25.07 6.1 43 53 -2.7 27.2 0 0
17:01 1020 30.12 849 25.07 6.1 43.1 54 -2.5 27.5 0 0
17:02 1020 30.12 849 25.07 6.1 43 53 -2.7 27.2 0 0
17:03 1020 30.12 849 25.07 6.1 43.1 53 -2.6 27.3 0 0
17:04 1020 30.12 849 25.07 6.1 43.1 53 -2.7 27.2 0 0
17:05 1020 30.12 849 25.07 6.2 43.2 52 -2.8 26.9 0 0
17:06 1020 30.12 849 25.07 6.4 43.4 53 -2.6 27.3 0 0
17:07 1020 30.12 849 25.07 6.4 43.5 51 -2.9 26.8 0 0
17:08 1020 30.12 849 25.07 6.6 43.8 51 -2.9 26.7 0 0
17:09 1020 30.12 849 25.07 6.7 44.1 51 -2.7 27.2 0 0
17:10 1020 30.12 849 25.07 6.6 43.9 52 -2.6 27.3 0 0
17:11 1020 30.12 849 25.07 6.5 43.7 52 -2.5 27.5 0 0
17:12 1020 30.12 849 25.07 6.4 43.5 52 -2.6 27.2 0 0
17:13 1020 30.12 849 25.07 6.4 43.5 50 -3.2 26.3 0 0
17:14 1020 30.12 849 25.07 6.6 44 51 -2.7 27.2 0 0
17:15 1020 30.12 849 25.07 6.7 44.1 50 -2.9 26.8 0 0
17:16 1020 30.12 849 25.07 6.8 44.3 49 -3.1 26.4 0 0
17:17 1020 30.12 849 25.07 6.9 44.4 50 -2.8 27 0 0
17:18 1020 30.12 849 25.07 6.8 44.3 50 -2.8 27 0 0
17:19 1020 30.12 849 25.07 6.8 44.2 50 -3 26.7 0 0
17:20 1020 30.12 849 25.07 6.8 44.2 50 -3 26.7 0 0
17:21 1020 30.12 849 25.07 6.8 44.2 50 -2.9 26.8 0 0
17:22 1020 30.12 849 25.07 6.7 44.1 50 -2.9 26.8 0 0
17:23 1020 30.12 849 25.07 6.7 44.1 51 -2.7 27.2 0 0
17:24 1020 30.12 849 25.07 6.6 43.8 52 -2.6 27.3 0 0
17:25 1020 30.12 849 25.07 6.4 43.6 52 -2.6 27.4 0 0
17:26 1020 30.12 849 25.07 6.3 43.4 52 -2.7 27.2 0 0
17:27 1020 30.12 849 25.07 6.2 43.2 53 -2.7 27.1 0 0
17:28 1020 30.12 849 25.07 6.1 42.9 54 -2.6 27.3 0 0
17:29 1020 30.12 849 25.07 5.9 42.6 55 -2.5 27.5 0 0
17:30 1020 30.12 849 25.07 5.7 42.2 55 -2.6 27.3 0 0
17:31 1020 30.12 849 25.07 5.6 42.1 55 -2.7 27.2 0 0
17:32 1020 30.12 849 25.07 5.6 42 54 -2.9 26.7 0 0
17:33 1020 30.12 849 25.07 5.7 42.2 54 -2.8 27 0 0
17:34 1020 30.12 849 25.07 5.8 42.5 53 -2.9 26.7 0 0
17:35 1020 30.12 849 25.07 6 42.7 53 -3 26.7 0 0
17:36 1020 30.12 849 25.07 6.1 42.9 53 -2.8 27 0 0
17:37 1020 30.12 849 25.07 6.2 43.1 52 -3 26.6 0 0
17:38 1020 30.12 849 25.07 6.3 43.3 52 -2.8 27 0 0
17:39 1020 30.12 849 25.07 6.3 43.3 52 -2.7 27.1 0 0
17:40 1020 30.12 849 25.07 6.2 43.1 53 -2.8 27 0 0
17:41 1020 30.12 849 25.07 6.1 43 53 -2.7 27.2 0 0
17:42 1020 30.12 849 25.07 6 42.9 54 -2.5 27.4 0 0
17:43 1020 30.12 849 25.07 6 42.8 54 -2.5 27.4 0 0
17:44 1020 30.12 849 25.07 6 42.7 55 -2.5 27.5 0 0
17:45 1020 30.12 849 25.07 6 42.7 54 -2.7 27.2 0 0
17:46 1020 30.12 849 25.07 6.1 43 53 -2.7 27.2 0 0
17:47 1020 30.12 849 25.07 6.2 43.2 53 -2.6 27.3 0 0
17:48 1020 30.12 849 25.07 6.3 43.3 55 -2 28.4 0 0
17:49 1020 30.12 849 25.07 6 42.9 57 -1.9 28.6 0 0
17:50 1020 30.12 849 25.07 5.8 42.4 57 -2 28.3 0 0
17:51 1020 30.12 849 25.07 5.6 42 57 -2.4 27.7 0 0
17:52 1020 30.12 849 25.07 5.6 42.1 58 -2.1 28.3 0 0
17:53 1020 30.12 849 25.07 5.6 42 59 -1.9 28.6 0 0
17:54 1020 30.12 849 25.07 5.4 41.8 58 -2.1 28.1 0 0
17:55 1020 30.12 849 25.07 5.4 41.6 59 -2.1 28.3 0 0
17:56 1020 30.12 849 25.07 5.3 41.5 59 -2.1 28.3 0 0
17:57 1020 30.12 849 25.07 5.2 41.4 59 -2.1 28.2 0 0
17:58 1020 30.12 849 25.07 5.2 41.4 58 -2.3 27.9 0 0
17:59 1020 30.12 849 25.07 5.4 41.8 57 -2.4 27.7 0 0
18:00 1020 30.12 849 25.07 5.6 42.1 57 -2.1 28.1 0 0
18:01 1020 30.12 849 25.07 5.6 42.1 58 -2.1 28.2 0 0
18:02 1020 30.12 849 25.07 5.6 42.1 56 -2.3 27.8 0 0
18:03 1020 30.12 849 25.07 5.7 42.3 57 -2 28.3 0 0
18:04 1020 30.12 849 25.07 5.6 42.1 58 -1.9 28.5 0 0
18:05 1020 30.12 849 25.07 5.5 41.8 59 -1.9 28.5 0 0
18:06 1020 30.12 849 25.07 5.3 41.6 60 -1.9 28.6 0 0
18:07 1020 30.12 849 25.07 5.1 41.2 61 -1.8 28.8 0 0
18:08 1020 30.12 849 25.07 4.9 40.9 61 -1.8 28.7 0 0
18:09 1020 30.12 849 25.07 4.8 40.7 61 -2 28.4 0 0
18:10 1020 30.12 849 25.07 4.8 40.7 61 -2 28.3 0 0
18:11 1020 30.12 849 25.07 4.9 40.8 60 -2.3 27.9 0 0
18:12 1020 30.12 849 25.07 5.1 41.2 60 -1.9 28.5 0 0
18:13 1020 30.12 849 25.07 5 41 61 -2 28.5 0 0
18:14 1020 30.12 849 25.07 5 41 60 -2 28.4 0 0
18:15 1020 30.12 849 25.07 5.1 41.1 60 -2 28.5 0 0
18:16 1020 30.12 849 25.07 5.1 41.2 61 -1.7 28.9 0 0
18:17 1020 30.12 849 25.07 5 41 61 -1.9 28.5 0 0
18:18 1020 30.12 849 25.07 5.1 41.1 59 -2.2 28 0 0
18:19 1020 30.12 849 25.07 5.4 41.8 57 -2.3 27.9 0 0
18:20 1020 30.12 849 25.07 5.8 42.4 56 -2.2 28.1 0 0
18:21 1020 30.12 849 25.07 6 42.7 57 -2 28.4 0 0
18:22 1020 30.12 849 25.07 6 42.7 57 -1.8 28.7 0 0
18:23 1020 30.12 849 25.07 5.9 42.7 56 -2.2 28 0 0
18:24 1020 30.12 849 25.07 6.1 43 56 -2.1 28.2 0 0
18:25 1020 30.12 849 25.07 6.3 43.3 55 -2.1 28.1 0 0
18:26 1020 30.12 849 25.07 6.4 43.5 54 -2.2 28.1 0 0
18:27 1020 30.12 849 25.07 6.4 43.5 55 -1.9 28.6 0 0
18:28 1020 30.12 849 25.07 6.3 43.3 57 -1.7 29 0 0
18:29 1020 30.12 849 25.07 6.1 42.9 58 -1.6 29.2 0 0
18:30 1020 30.12 849 25.07 5.9 42.5 58 -1.9 28.6 0 0
18:31 1020 30.12 849 25.07 5.9 42.6 56 -2.2 28 0 0
18:32 1020 30.12 849 25.07 6.2 43.1 53 -2.6 27.4 0 0
18:33 1020 30.12 849 25.07 6.6 43.9 53 -2.4 27.7 0 0
18:34 1020 30.12 849 25.07 6.8 44.2 53 -2.2 28.1 0 0
18:35 1020 30.12 849 25.07 6.7 44.1 53 -2.2 28.1 0 0
18:36 1020 30.12 849 25.07 6.7 44.1 54 -1.9 28.6 0 0
18:37 1020 30.12 849 25.07 6.6 43.8 56 -1.5 29.2 0 0
18:38 1020 30.12 849 25.07 6.2 43.2 57 -1.6 29.1 0 0
18:39 1020 30.12 849 25.07 5.9 42.6 59 -1.5 29.3 0 0
18:40 1020 30.12 849 25.07 5.6 42.1 60 -1.4 29.4 0 0
18:41 1020 30.12 849 25.07 5.4 41.7 60 -1.8 28.7 0 0
18:42 1020 30.12 849 25.07 5.4 41.7 59 -1.9 28.6 0 0
18:43 1020 30.12 849 25.07 5.4 41.8 60 -1.8 28.8 0 0
18:44 1020 30.12 849 25.07 5.3 41.6 61 -1.6 29.1 0 0
18:45 1020 30.12 849 25.07 5.2 41.4 60 -1.9 28.5 0 0
18:46 1020 30.12 849 25.07 5.3 41.6 58 -2.2 28 0 0
18:47 1020 30.12 849 25.07 5.5 41.9 59 -1.9 28.6 0 0
18:48 1020 30.12 849 25.07 5.5 42 59 -1.8 28.7 0 0
18:49 1020 30.12 849 25.07 5.5 41.8 60 -1.7 29 0 0
18:50 1020 30.12 849 25.07 5.3 41.5 61 -1.6 29.1 0 0
18:51 1020 30.12 849 25.07 5.1 41.2 61 -1.8 28.8 0 0
18:52 1020 30.12 849 25.07 5.1 41.2 61 -1.8 28.7 0 0
18:53 1020 30.12 849 25.07 5 41 62 -1.7 28.9 0 0
18:54 1020 30.12 849 25.07 4.9 40.8 62 -1.8 28.8 0 0
18:55 1020 30.12 849 25.07 4.8 40.7 62 -1.9 28.6 0 0
18:56 1020 30.12 849 25.07 4.9 40.7 62 -1.9 28.6 0 0
18:57 1020 30.12 849 25.07 4.8 40.7 62 -1.7 28.9 0 0
18:58 1020 30.12 849 25.07 4.7 40.4 64 -1.6 29 0 0
18:59 1020 30.12 849 25.07 4.5 40 64 -1.8 28.8 0 0
19:00 1020 30.12 849 25.07 4.5 40 63 -2 28.5 0 0
19:01 1020 30.12 849 25.07 4.6 40.3 62 -2.1 28.2 0 0
19:02 1020 30.12 849 25.07 4.9 40.7 60 -2.1 28.1 0 0
19:03 1020 30.12 849 25.07 5 41 60 -2.1 28.2 0 0
19:04 1020 30.12 849 25.07 5.2 41.4 59 -2.1 28.2 0 0
19:05 1020 30.12 849 25.07 5.4 41.6 58 -2.2 28.1 0 0
19:06 1020 30.12 849 25.07 5.6 42.1 57 -2.2 28 0 0
19:07 1020 30.12 849 25.07 5.8 42.5 57 -2.1 28.2 0 0
19:08 1020 30.12 849 25.07 5.8 42.5 57 -2.1 28.2 0 0
19:09 1020 30.12 849 25.07 5.9 42.5 57 -2 28.3 0 0
19:10 1020 30.12 849 25.07 5.9 42.6 57 -2 28.4 0 0
19:11 1020 30.12 849 25.07 5.9 42.5 57 -2 28.4 0 0
19:12 1020 30.12 849 25.07 5.9 42.6 56 -2.1 28.2 0 0
19:13 1020 30.12 849 25.07 6.1 42.9 57 -1.9 28.6 0 0
19:14 1020 30.12 849 25.07 6 42.7 57 -1.8 28.8 0 0
19:15 1020 30.12 849 25.07 5.9 42.7 57 -1.9 28.6 0 0
19:16 1020 30.12 849 25.07 6 42.8 57 -1.8 28.7 0 0
19:17 1020 30.12 849 25.07 6 42.9 58 -1.6 29.1 0 0
19:18 1020 30.12 849 25.07 5.9 42.7 58 -1.7 29 0 0
19:19 1020 30.12 849 25.07 5.9 42.5 58 -1.7 28.9 0 0
19:20 1020 30.12 849 25.07 5.8 42.5 59 -1.7 29 0 0
19:21 1020 30.12 849 25.07 5.8 42.4 57 -2.1 28.3 0 0
19:22 1020 30.12 849 25.07 6 42.7 56 -2 28.3 0 0
19:23 1020 30.12 849 25.07 6.2 43.1 56 -1.9 28.5 0 0
19:24 1020 30.12 849 25.07 6.3 43.3 56 -1.9 28.7 0 0
19:25 1020 30.12 849 25.07 6.3 43.3 56 -1.7 28.9 0 0
19:26 1020 30.12 849 25.07 6.2 43.1 57 -1.7 29 0 0
19:27 1020 30.12 849 25.07 6.1 43 57 -1.7 29 0 0
19:28 1020 30.12 849 25.07 6 42.8 57 -1.8 28.8 0 0
19:29 1020 30.12 849 25.07 6 42.8 57 -1.8 28.7 0 0
19:30 1020 30.12 849 25.07 6 42.8 58 -1.6 29 0 0
19:31 1020 30.12 849 25.07 5.9 42.6 58 -1.7 28.9 0 0
19:32 1020 30.12 849 25.07 5.9 42.6 58 -1.8 28.8 0 0
19:33 1020 30.12 849 25.07 6 42.7 58 -1.6 29.1 0 0
19:34 1020 30.12 849 25.07 5.8 42.5 59 -1.6 29 0 0
19:35 1020 30.12 849 25.07 5.7 42.3 59 -1.6 29.1 0 0
19:36 1020 30.12 849 25.07 5.6 42 59 -1.7 28.9 0 0
19:37 1020 30.12 849 25.07 5.5 42 59 -1.8 28.8 0 0
19:38 1020 30.12 849 25.07 5.6 42.1 58 -1.9 28.6 0 0
19:39 1020 30.12 849 25.07 5.7 42.3 58 -1.8 28.7 0 0
19:40 1020 30.12 849 25.07 5.7 42.3 58 -1.9 28.6 0 0
19:41 1020 30.12 849 25.07 5.8 42.4 58 -1.8 28.8 0 0
19:42 1020 30.12 849 25.07 5.8 42.5 57 -2.1 28.3 0 0
19:43 1020 30.12 849 25.07 6.1 42.9 56 -2.1 28.2 0 0
19:44 1020 30.12 849 25.07 6.3 43.4 54 -2.2 28 0 0
19:45 1020 30.12 849 25.07 6.6 43.9 53 -2.3 27.9 0 0
19:46 1020 30.12 849 25.07 6.9 44.4 53 -2 28.4 0 0
19:47 1020 30.12 849 25.07 7 44.5 54 -1.8 28.8 0 0
19:48 1020 30.12 849 25.07 6.8 44.3 52 -2.4 27.8 0 0
19:49 1020 30.12 849 25.07 7.1 44.8 52 -2.1 28.3 0 0
19:50 1020 30.12 849 25.07 7.2 45 51 -2.2 28 0 0
19:51 1020 30.12 849 25.07 7.3 45.1 52 -2 28.4 0 0
19:52 1020 30.12 849 25.07 7.2 45 53 -1.7 28.9 0 0
19:53 1020 30.12 849 25.07 6.9 44.5 53 -2 28.4 0 0
19:54 1020 30.12 849 25.07 6.8 44.2 53 -2 28.4 0 0
19:55 1020 30.12 849 25.07 6.8 44.2 53 -2.2 28 0 0
19:56 1020 30.12 849 25.07 6.8 44.3 53 -2.2 28.1 0 0
19:57 1020 30.12 849 25.07 6.9 44.3 53 -2.1 28.3 0 0
19:58 1020 30.12 849 25.07 6.8 44.2 53 -2.1 28.3 0 0
19:59 1020 30.12 849 25.07 6.6 43.9 53 -2.2 28 0 0
20:00 1020 30.12 849 25.07 6.6 43.9 54 -2.1 28.2 0 0
20:01 1020 30.12 849 25.07 6.6 43.8 54 -2.2 28 0 0
20:02 1020 30.12 849 25.07 6.5 43.7 53 -2.3 27.9 0 0
20:03 1020 30.12 849 25.07 6.5 43.7 53 -2.3 27.8 0 0
20:04 1020 30.12 849 25.07 6.5 43.7 54 -2.1 28.2 0 0
20:05 1020 30.12 849 25.07 6.2 43.1 55 -2.1 28.3 0 0
20:06 1020 30.12 849 25.07 5.9 42.6 56 -2.1 28.2 0 0
20:07 1020 30.12 849 25.07 5.7 42.2 57 -2.1 28.2 0 0
20:08 1020 30.12 849 25.07 5.3 41.6 60 -1.9 28.6 0 0
20:09 1020 30.12 849 25.07 4.8 40.6 61 -2 28.4 0 0
20:10 1020 30.12 849 25.07 4.7 40.4 62 -2.1 28.3 0 0
20:11 1020 30.12 849 25.07 4.7 40.5 61 -2.3 27.9 0 0
20:12 1020 30.12 849 25.07 4.9 40.9 60 -2.3 27.9 0 0
20:13 1020 30.12 849 25.07 5.1 41.2 58 -2.4 27.7 0 0
20:14 1020 30.12 849 25.07 5.3 41.5 58 -2.3 27.8 0 0
20:15 1020 30.12 849 25.07 5.4 41.7 57 -2.4 27.7 0 0
20:16 1020 30.12 849 25.07 5.6 42.2 56 -2.4 27.6 0 0
20:17 1019 30.09 849 25.07 5.8 42.4 57 -2.2 28.1 0 0
20:18 1019 30.09 849 25.07 5.5 41.9 58 -2.1 28.3 0 0
20:19 1020 30.12 849 25.07 5.2 41.4 59 -2.2 28 0 0
20:20 1019 30.09 849 25.07 5.2 41.3 58 -2.3 27.8 0 0
20:21 1019 30.09 849 25.07 5.3 41.6 57 -2.5 27.5 0 0
20:22 1019 30.09 849 25.07 5.5 42 57 -2.4 27.7 0 0
20:23 1019 30.09 849 25.07 5.6 42.1 56 -2.5 27.5 0 0
20:24 1019 30.09 849 25.07 5.7 42.3 56 -2.4 27.8 0 0
20:25 1019 30.09 849 25.07 5.7 42.3 56 -2.3 27.9 0 0
20:26 1019 30.09 848 25.04 5.6 42.1 57 -2.3 27.8 0 0
20:27 1019 30.09 848 25.04 5.6 42.1 56 -2.4 27.8 0 0
20:28 1019 30.09 848 25.04 5.9 42.6 54 -2.7 27.1 0 0
20:29 1019 30.09 848 25.04 6.3 43.4 53 -2.4 27.6 0 0
20:30 1019 30.09 848 25.04 6.5 43.6 54 -2.1 28.2 0 0
20:31 1019 30.09 848 25.04 6.3 43.4 55 -2.1 28.3 0 0
20:32 1019 30.09 848 25.04 6.2 43.2 54 -2.3 27.8 0 0
20:33 1019 30.09 848 25.04 6.2 43.2 55 -2.2 28 0 0
20:34 1019 30.09 848 25.04 6.2 43.2 56 -2 28.4 0 0
20:35 1019 30.09 848 25.04 6 42.9 56 -1.9 28.5 0 0
20:36 1019 30.09 848 25.04 5.8 42.5 57 -2.1 28.2 0 0
20:37 1019 30.09 848 25.04 5.7 42.3 57 -2.1 28.2 0 0
20:38 1019 30.09 848 25.04 5.7 42.3 57 -2.1 28.1 0 0
20:39 1019 30.09 848 25.04 5.7 42.3 57 -2 28.3 0 0
20:40 1019 30.09 848 25.04 5.7 42.2 58 -2 28.3 0 0
20:41 1019 30.09 848 25.04 5.6 42.2 57 -2.1 28.2 0 0
20:42 1019 30.09 848 25.04 5.7 42.3 57 -2.1 28.2 0 0
20:43 1019 30.09 848 25.04 5.9 42.5 55 -2.5 27.5 0 0
20:44 1019 30.09 848 25.04 6.3 43.3 54 -2.3 27.8 0 0
20:45 1019 30.09 848 25.04 6.6 43.8 54 -2.1 28.2 0 0
20:46 1019 30.09 848 25.04 6.7 44 52 -2.5 27.5 0 0
20:47 1019 30.09 848 25.04 7.1 44.8 50 -2.5 27.6 0 0
20:48 1019 30.09 848 25.04 7.4 45.3 50 -2.3 27.9 0 0
20:49 1019 30.09 848 25.04 7.5 45.4 50 -2.3 27.8 0 0
20:50 1019 30.09 848 25.04 7.7 45.8 49 -2.3 27.9 0 0
20:51 1019 30.09 848 25.04 7.7 45.9 51 -1.9 28.6 0 0
20:52 1019 30.09 848 25.04 7.5 45.6 51 -1.9 28.5 0 0
20:53 1019 30.09 848 25.04 7.5 45.4 51 -2.1 28.3 0 0
20:54 1019 30.09 848 25.04 7.5 45.5 51 -2 28.4 0 0
20:55 1019 30.09 848 25.04 7.5 45.6 52 -1.8 28.8 0 0
20:56 1019 30.09 848 25.04 7.3 45.2 52 -1.8 28.8 0 0
20:57 1019 30.09 848 25.04 7.1 44.8 53 -1.7 28.9 0 0
20:58 1019 30.09 848 25.04 6.9 44.4 54 -1.8 28.8 0 0
20:59 1019 30.09 848 25.04 6.7 44 54 -1.8 28.7 0 0
21:00 1019 30.09 848 25.04 6.6 43.8 54 -2 28.3 0 0
21:01 1019 30.09 848 25.04 6.6 43.8 54 -2 28.3 0 0
21:02 1019 30.09 848 25.04 6.6 43.9 55 -1.9 28.6 0 0
21:03 1019 30.09 848 25.04 6.7 44 55 -1.8 28.7 0 0
21:04 1019 30.09 848 25.04 6.7 44 56 -1.6 29.2 0 0
21:05 1019 30.09 848 25.04 6.6 43.9 56 -1.6 29.2 0 0
21:06 1019 30.09 848 25.04 6.5 43.6 56 -1.6 29.2 0 0
21:07 1019 30.09 848 25.04 6.4 43.5 57 -1.5 29.2 0 0
21:08 1019 30.09 848 25.04 6.3 43.4 57 -1.7 29 0 0
21:09 1019 30.09 848 25.04 6.3 43.3 57 -1.7 29 0 0
21:10 1019 30.09 848 25.04 6.2 43.2 57 -1.6 29.2 0 0
21:11 1019 30.09 848 25.04 6.2 43.2 57 -1.7 29 0 0
21:12 1019 30.09 848 25.04 6.2 43.2 57 -1.7 29 0 0
21:13 1019 30.09 848 25.04 6.2 43.1 57 -1.7 29 0 0
21:14 1019 30.09 848 25.04 6.2 43.1 57 -1.6 29 0 0
21:15 1019 30.09 848 25.04 6.2 43.1 57 -1.7 28.9 0 0
21:16 1019 30.09 848 25.04 6.2 43.1 56 -1.9 28.6 0 0
21:17 1019 30.09 848 25.04 6.3 43.3 57 -1.7 28.9 0 0
21:18 1019 30.09 848 25.04 6.3 43.3 56 -1.9 28.6 0 0
21:19 1019 30.09 848 25.04 6.4 43.5 56 -1.8 28.7 0 0
21:20 1019 30.09 848 25.04 6.4 43.5 56 -1.8 28.8 0 0
21:21 1019 30.09 848 25.04 6.5 43.7 54 -2 28.3 0 0
21:22 1019 30.09 848 25.04 6.6 43.8 55 -1.8 28.7 0 0
21:23 1019 30.09 848 25.04 6.6 43.9 55 -1.9 28.7 0 0
21:24 1019 30.09 848 25.04 6.6 43.9 55 -1.8 28.8 0 0
21:25 1019 30.09 848 25.04 6.6 43.9 55 -1.9 28.6 0 0
21:26 1019 30.09 848 25.04 6.7 44 55 -1.7 28.9 0 0
21:27 1019 30.09 848 25.04 6.6 43.9 55 -1.6 29 0 0
21:28 1019 30.09 848 25.04 6.6 43.9 55 -1.7 29 0 0
21:29 1019 30.09 848 25.04 6.6 43.9 55 -1.8 28.8 0 0
21:30 1019 30.09 848 25.04 6.6 43.8 55 -1.7 28.9 0 0
21:31 1019 30.09 848 25.04 6.6 43.8 55 -1.8 28.8 0 0
21:32 1019 30.09 848 25.04 6.5 43.6 55 -1.8 28.7 0 0
21:33 1019 30.09 848 25.04 6.5 43.6 56 -1.7 28.9 0 0
21:34 1019 30.09 848 25.04 6.3 43.3 56 -1.7 28.9 0 0
21:35 1019 30.09 848 25.04 6.1 43 57 -1.7 29 0 0
21:36 1019 30.09 848 25.04 5.9 42.6 58 -1.7 28.9 0 0
21:37 1019 30.09 848 25.04 5.8 42.4 58 -1.8 28.8 0 0
21:38 1019 30.09 848 25.04 5.8 42.4 58 -1.9 28.7 0 0
21:39 1019 30.09 848 25.04 5.8 42.4 57 -2 28.4 0 0
21:40 1019 30.09 848 25.04 5.9 42.6 57 -1.9 28.6 0 0
21:41 1019 30.09 848 25.04 5.9 42.7 57 -2 28.5 0 0
21:42 1019 30.09 848 25.04 5.9 42.7 57 -1.9 28.6 0 0
21:43 1019 30.09 848 25.04 6.1 42.9 56 -2 28.4 0 0
21:44 1019 30.09 848 25.04 6.2 43.2 56 -1.8 28.8 0 0
21:45 1019 30.09 848 25.04 6.2 43.1 55 -2.2 28.1 0 0
21:46 1019 30.09 848 25.04 6.4 43.5 55 -1.9 28.5 0 0
21:47 1019 30.09 848 25.04 6.5 43.6 55 -1.9 28.5 0 0
21:48 1019 30.09 848 25.04 6.4 43.6 54 -2.1 28.3 0 0
21:49 1019 30.09 848 25.04 6.5 43.7 55 -2 28.5 0 0
21:50 1019 30.09 848 25.04 6.6 43.8 54 -2 28.5 0 0
21:51 1019 30.09 848 25.04 6.6 43.9 54 -1.9 28.6 0 0
21:52 1019 30.09 848 25.04 6.8 44.2 55 -1.6 29 0 0
21:53 1019 30.09 848 25.04 6.9 44.3 54 -1.8 28.8 0 0
21:54 1019 30.09 848 25.04 7 44.6 54 -1.7 29 0 0
21:55 1019 30.09 848 25.04 7 44.6 54 -1.7 29 0 0
21:56 1019 30.09 848 25.04 7.1 44.7 53 -1.8 28.8 0 0
21:57 1019 30.09 848 25.04 7.1 44.7 53 -1.7 28.9 0 0
21:58 1019 30.09 848 25.04 7.1 44.8 53 -1.7 28.9 0 0
21:59 1019 30.09 848 25.04 7.1 44.8 54 -1.6 29.2 0 0
22:00 1019 30.09 848 25.04 7.1 44.7 54 -1.5 29.4 0 0
22:01 1019 30.09 848 25.04 7 44.6 54 -1.7 28.9 0 0
22:02 1019 30.09 848 25.04 7.1 44.7 54 -1.7 28.9 0 0
22:03 1019 30.09 848 25.04 7.1 44.8 53 -1.7 29 0 0
22:04 1019 30.09 848 25.04 7.1 44.7 54 -1.6 29.2 0 0
22:05 1019 30.09 848 25.04 7 44.7 54 -1.6 29.1 0 0
22:06 1019 30.09 848 25.04 7.1 44.7 54 -1.5 29.3 0 0
22:07 1019 30.09 848 25.04 7 44.5 54 -1.6 29.1 0 0
22:08 1019 30.09 848 25.04 6.9 44.4 55 -1.5 29.2 0 0
22:09 1019 30.09 848 25.04 6.9 44.4 55 -1.6 29.2 0 0
22:10 1019 30.09 848 25.04 6.9 44.3 55 -1.4 29.4 0 0
22:11 1019 30.09 848 25.04 6.8 44.2 55 -1.5 29.3 0 0
22:12 1019 30.09 848 25.04 6.8 44.2 55 -1.5 29.2 0 0
22:13 1019 30.09 848 25.04 6.7 44.1 56 -1.4 29.4 0 0
22:14 1019 30.09 848 25.04 6.7 44 57 -1.3 29.7 0 0
22:15 1019 30.09 848 25.04 6.5 43.7 57 -1.4 29.5 0 0
22:16 1019 30.09 848 25.04 6.4 43.6 58 -1.2 29.8 0 0
22:17 1019 30.09 848 25.04 6.3 43.4 58 -1.2 29.8 0 0
22:18 1019 30.09 848 25.04 6.2 43.2 58 -1.4 29.6 0 0
22:19 1019 30.09 848 25.04 6.2 43.1 58 -1.5 29.3 0 0
22:20 1019 30.09 848 25.04 6.2 43.1 58 -1.5 29.3 0 0
22:21 1019 30.09 848 25.04 6.2 43.2 58 -1.4 29.5 0 0
22:22 1019 30.09 848 25.04 6.1 43.1 58 -1.4 29.5 0 0
22:23 1019 30.09 848 25.04 6.1 43 57 -1.7 29 0 0
22:24 1019 30.09 848 25.04 6.3 43.3 57 -1.7 28.9 0 0
22:25 1019 30.09 848 25.04 6.4 43.5 56 -1.7 29 0 0
22:26 1019 30.09 848 25.04 6.5 43.7 56 -1.6 29.1 0 0
22:27 1019 30.09 848 25.04 6.5 43.7 56 -1.5 29.3 0 0
22:28 1019 30.09 848 25.04 6.5 43.7 57 -1.5 29.4 0 0
22:29 1019 30.09 848 25.04 6.5 43.7 57 -1.5 29.3 0 0
22:30 1019 30.09 848 25.04 6.4 43.6 56 -1.7 28.9 0 0
22:31 1019 30.09 848 25.04 6.5 43.8 56 -1.7 28.9 0 0
22:32 1019 30.09 848 25.04 6.6 43.9 55 -1.7 28.9 0 0
22:33 1019 30.09 848 25.04 6.6 43.9 55 -1.7 29 0 0
22:34 1019 30.09 848 25.04 6.6 43.8 56 -1.7 29 0 0
22:35 1019 30.09 848 25.04 6.5 43.7 55 -1.9 28.6 0 0
22:36 1019 30.09 848 25.04 6.6 43.8 54 -2 28.3 0 0
22:37 1019 30.09 848 25.04 6.7 44.1 54 -2 28.4 0 0
22:38 1019 30.09 848 25.04 6.8 44.2 54 -1.9 28.6 0 0
22:39 1019 30.09 848 25.04 6.8 44.3 54 -1.9 28.6 0 0
22:40 1019 30.09 848 25.04 6.8 44.3 53 -2 28.5 0 0
22:41 1019 30.09 848 25.04 6.9 44.3 53 -2 28.4 0 0
22:42 1019 30.09 848 25.04 6.9 44.5 53 -2 28.5 0 0
22:43 1019 30.09 848 25.04 6.9 44.4 54 -1.9 28.6 0 0
22:44 1019 30.09 848 25.04 6.8 44.2 54 -1.8 28.7 0 0
22:45 1019 30.09 848 25.04 6.7 44 54 -1.9 28.6 0 0
22:46 1019 30.09 848 25.04 6.6 43.8 54 -2 28.5 0 0
22:47 1019 30.09 848 25.04 6.5 43.8 55 -1.9 28.7 0 0
22:48 1019 30.09 848 25.04 6.3 43.3 56 -1.7 28.9 0 0
22:49 1019 30.09 848 25.04 5.9 42.6 58 -1.8 28.7 0 0
22:50 1019 30.09 848 25.04 5.8 42.4 57 -2.1 28.2 0 0
22:51 1019 30.09 848 25.04 5.8 42.5 57 -2 28.4 0 0
22:52 1019 30.09 848 25.04 5.8 42.4 57 -2 28.4 0 0
22:53 1019 30.09 848 25.04 5.8 42.5 57 -2 28.4 0 0
22:54 1019 30.09 848 25.04 5.8 42.5 56 -2.2 28 0 0
22:55 1019 30.09 848 25.04 6 42.7 55 -2.3 27.9 0 0
22:56 1019 30.09 848 25.04 6.1 43 55 -2.2 28 0 0
22:57 1019 30.09 848 25.04 6.3 43.3 55 -2.2 28.1 0 0
22:58 1019 30.09 848 25.04 6.2 43.2 55 -2.1 28.1 0 0
22:59 1019 30.09 848 25.04 6.1 43 55 -2.2 28.1 0 0
23:00 1019 30.09 848 25.04 6.1 43 55 -2.1 28.1 0 0
23:01 1019 30.09 848 25.04 6.2 43.1 54 -2.4 27.7 0 0
23:02 1019 30.09 848 25.04 6.4 43.4 54 -2.3 27.9 0 0
23:03 1019 30.09 848 25.04 6.4 43.6 54 -2.3 27.9 0 0
23:04 1019 30.09 848 25.04 6.5 43.6 55 -2 28.4 0 0
23:05 1019 30.09 848 25.04 6.2 43.1 56 -1.9 28.6 0 0
23:06 1019 30.09 848 25.04 5.9 42.5 57 -2 28.4 0 0
23:07 1019 30.09 848 25.04 5.7 42.2 58 -2 28.5 0 0
23:08 1019 30.09 848 25.04 5.6 42.1 58 -1.9 28.6 0 0
23:09 1019 30.09 848 25.04 5.6 42 59 -1.9 28.6 0 0
23:10 1019 30.09 848 25.04 5.5 42 59 -1.8 28.7 0 0
23:11 1019 30.09 848 25.04 5.5 41.9 59 -1.9 28.5 0 0
23:12 1019 30.09 848 25.04 5.6 42 58 -2 28.5 0 0
23:13 1019 30.09 848 25.04 5.7 42.2 57 -2.1 28.3 0 0
23:14 1019 30.09 848 25.04 5.9 42.7 56 -2.2 28.1 0 0
23:15 1019 30.09 848 25.04 6.2 43.2 55 -2.1 28.2 0 0
23:16 1019 30.09 848 25.04 6.4 43.6 55 -1.8 28.7 0 0
23:17 1019 30.09 848 25.04 6.4 43.5 56 -1.8 28.7 0 0
23:18 1019 30.09 848 25.04 6.3 43.3 55 -2 28.4 0 0
23:19 1019 30.09 848 25.04 6.3 43.3 56 -1.9 28.5 0 0
23:20 1019 30.09 848 25.04 6.2 43.1 56 -1.9 28.6 0 0
23:21 1019 30.09 848 25.04 6 42.8 56 -2.1 28.3 0 0
23:22 1019 30.09 848 25.04 6.1 42.9 56 -2 28.3 0 0
23:23 1019 30.09 848 25.04 6.1 43.1 55 -2.1 28.2 0 0
23:24 1019 30.09 848 25.04 6.2 43.2 55 -2.1 28.1 0 0
23:25 1019 30.09 848 25.04 6.3 43.4 54 -2.2 28 0 0
23:26 1019 30.09 848 25.04 6.4 43.5 54 -2.2 28 0 0
23:27 1019 30.09 848 25.04 6.5 43.7 53 -2.3 27.9 0 0
23:28 1019 30.09 848 25.04 6.7 44.1 52 -2.5 27.5 0 0
23:29 1019 30.09 848 25.04 7.3 45.1 49 -2.8 27 0 0
23:30 1019 30.09 848 25.04 8 46.3 48 -2.5 27.5 0 0
23:31 1019 30.09 848 25.04 8.2 46.8 48 -2.2 28 0 0
23:32 1019 30.09 848 25.04 8.4 47 46 -2.5 27.6 0 0
23:33 1019 30.09 848 25.04 8.6 47.5 47 -2.2 28.1 0 0
23:34 1019 30.09 848 25.04 8.5 47.4 49 -1.7 29 0 0
23:35 1019 30.09 848 25.04 8.2 46.7 50 -1.7 28.9 0 0
23:36 1019 30.09 848 25.04 8 46.4 49 -2 28.3 0 0
23:37 1019 30.09 848 25.04 7.9 46.2 50 -1.8 28.7 0 0
23:38 1019 30.09 848 25.04 7.8 46.1 50 -1.9 28.6 0 0
23:39 1019 30.09 848 25.04 7.9 46.2 49 -2.1 28.2 0 0
23:40 1019 30.09 848 25.04 8.1 46.5 49 -2.1 28.2 0 0
23:41 1019 30.09 848 25.04 8.3 47 48 -2.1 28.2 0 0
23:42 1019 30.09 848 25.04 8.5 47.3 48 -1.9 28.6 0 0
23:43 1019 30.09 848 25.04 8.7 47.6 47 -2 28.4 0 0
23:44 1019 30.09 848 25.04 8.9 48.1 47 -1.9 28.7 0 0
23:45 1019 30.09 848 25.04 8.9 48 47 -1.8 28.7 0 0
23:46 1019 30.09 848 25.04 8.8 47.9 48 -1.6 29.1 0 0
23:47 1019 30.09 848 25.04 8.6 47.4 48 -1.7 29 0 0
23:48 1019 30.09 848 25.04 8.4 47.1 49 -1.8 28.8 0 0
23:49 1019 30.09 848 25.04 8.2 46.7 50 -1.7 28.9 0 0
23:50 1019 30.09 848 25.04 7.9 46.2 51 -1.6 29.2 0 0
23:51 1019 30.09 848 25.04 7.7 45.8 51 -1.7 28.9 0 0
23:52 1019 30.09 848 25.04 7.7 45.8 51 -1.8 28.8 0 0
23:53 1019 30.09 848 25.04 7.8 46 50 -1.9 28.5 0 0
23:54 1019 30.09 848 25.04 8 46.4 49 -2 28.5 0 0
23:55 1019 30.09 848 25.04 8.2 46.7 49 -1.8 28.8 0 0
23:56 1019 30.09 848 25.04 8.2 46.8 49 -1.7 28.9 0 0
23:57 1019 30.09 848 25.04 8.2 46.8 50 -1.7 29 0 0
23:58 1019 30.09 848 25.04 8.3 46.9 50 -1.5 29.4 0 0
23:59 1019 30.09 848 25.04 8.1 46.6 51 -1.3 29.7 0 0
24:00 1019 30.09 848 25.04 7.8 46.1 53 -1.1 30 0 0